<?xml version="1.0" encoding="UTF-8" standalone="no" ?>
<gpx xmlns="http://www.topografix.com/GPX/1/1" xmlns:xsi="http://www.w3.org/2001/XMLSchema-instance" xsi:schemaLocation="http://www.topografix.com/GPX/1/1 http://www.topografix.com/GPX/1/1/gpx.xsd" version="1.1" creator="VisuGPX - https://www.visugpx.com">
  <metadata>
    <name>Rando vélo gravel du Pas de l'Escalette</name>
    <desc><![CDATA[Jolie balade Gravel en lodévois pour le plaisir de franchir les frontières géologiques, climatiques et de végétation entre la vallée de la Lergue et le causse.]]></desc>
  </metadata>
  <trk>
    <name><![CDATA[7 avr. 2018 Gravel Lergue]]></name>
    <cmt><![CDATA[7 avr. 2018 09:53:28]]></cmt>
    <extensions>
      <line xmlns="http://www.topografix.com/GPX/gpx_style/0/2">
        <color>000000</color>
      </line>
    </extensions>
    <trkseg>
      <trkpt lat="43.76336" lon="3.32927">
        <ele>121</ele>
        <time>2018-04-07T07:53:41Z</time>
      </trkpt>
      <trkpt lat="43.76408" lon="3.32943">
        <ele>192</ele>
        <time>2018-04-07T07:54:19Z</time>
      </trkpt>
      <trkpt lat="43.76504" lon="3.32966">
        <ele>215</ele>
        <time>2018-04-07T07:54:49Z</time>
      </trkpt>
      <trkpt lat="43.76528" lon="3.32974">
        <ele>217</ele>
        <time>2018-04-07T07:54:59Z</time>
      </trkpt>
      <trkpt lat="43.76615" lon="3.33036">
        <ele>222</ele>
        <time>2018-04-07T07:55:29Z</time>
      </trkpt>
      <trkpt lat="43.76657" lon="3.33068">
        <ele>224</ele>
        <time>2018-04-07T07:55:44Z</time>
      </trkpt>
      <trkpt lat="43.76692" lon="3.33117">
        <ele>227</ele>
        <time>2018-04-07T07:56:01Z</time>
      </trkpt>
      <trkpt lat="43.76715" lon="3.33115">
        <ele>229</ele>
        <time>2018-04-07T07:56:11Z</time>
      </trkpt>
      <trkpt lat="43.76695" lon="3.33054">
        <ele>228</ele>
        <time>2018-04-07T07:56:27Z</time>
      </trkpt>
      <trkpt lat="43.76665" lon="3.33004">
        <ele>229</ele>
        <time>2018-04-07T07:56:47Z</time>
      </trkpt>
      <trkpt lat="43.76654" lon="3.32976">
        <ele>229</ele>
        <time>2018-04-07T07:56:57Z</time>
      </trkpt>
      <trkpt lat="43.76639" lon="3.32948">
        <ele>231</ele>
        <time>2018-04-07T07:57:06Z</time>
      </trkpt>
      <trkpt lat="43.76597" lon="3.32918">
        <ele>233</ele>
        <time>2018-04-07T07:57:22Z</time>
      </trkpt>
      <trkpt lat="43.76564" lon="3.32872">
        <ele>234</ele>
        <time>2018-04-07T07:57:39Z</time>
      </trkpt>
      <trkpt lat="43.76522" lon="3.32846">
        <ele>237</ele>
        <time>2018-04-07T07:57:59Z</time>
      </trkpt>
      <trkpt lat="43.76502" lon="3.32825">
        <ele>238</ele>
        <time>2018-04-07T07:58:09Z</time>
      </trkpt>
      <trkpt lat="43.7647" lon="3.32775">
        <ele>240</ele>
        <time>2018-04-07T07:58:27Z</time>
      </trkpt>
      <trkpt lat="43.76429" lon="3.32743">
        <ele>242</ele>
        <time>2018-04-07T07:58:45Z</time>
      </trkpt>
      <trkpt lat="43.76384" lon="3.32725">
        <ele>245</ele>
        <time>2018-04-07T07:59:04Z</time>
      </trkpt>
      <trkpt lat="43.76371" lon="3.32698">
        <ele>248</ele>
        <time>2018-04-07T07:59:17Z</time>
      </trkpt>
      <trkpt lat="43.76368" lon="3.32664">
        <ele>250</ele>
        <time>2018-04-07T07:59:27Z</time>
      </trkpt>
      <trkpt lat="43.76382" lon="3.32638">
        <ele>253</ele>
        <time>2018-04-07T07:59:36Z</time>
      </trkpt>
      <trkpt lat="43.76403" lon="3.32624">
        <ele>272</ele>
        <time>2018-04-07T08:00:45Z</time>
      </trkpt>
      <trkpt lat="43.76443" lon="3.32591">
        <ele>281</ele>
        <time>2018-04-07T08:01:02Z</time>
      </trkpt>
      <trkpt lat="43.76507" lon="3.3255">
        <ele>289</ele>
        <time>2018-04-07T08:01:30Z</time>
      </trkpt>
      <trkpt lat="43.76508" lon="3.32514">
        <ele>290</ele>
        <time>2018-04-07T08:01:43Z</time>
      </trkpt>
      <trkpt lat="43.765" lon="3.32483">
        <ele>291</ele>
        <time>2018-04-07T08:01:51Z</time>
      </trkpt>
      <trkpt lat="43.76485" lon="3.32456">
        <ele>290</ele>
        <time>2018-04-07T08:01:59Z</time>
      </trkpt>
      <trkpt lat="43.76463" lon="3.32446">
        <ele>290</ele>
        <time>2018-04-07T08:02:08Z</time>
      </trkpt>
      <trkpt lat="43.76441" lon="3.32431">
        <ele>289</ele>
        <time>2018-04-07T08:02:17Z</time>
      </trkpt>
      <trkpt lat="43.76447" lon="3.32401">
        <ele>290</ele>
        <time>2018-04-07T08:02:46Z</time>
      </trkpt>
      <trkpt lat="43.76469" lon="3.3239">
        <ele>292</ele>
        <time>2018-04-07T08:02:59Z</time>
      </trkpt>
      <trkpt lat="43.76492" lon="3.32392">
        <ele>293</ele>
        <time>2018-04-07T08:03:14Z</time>
      </trkpt>
      <trkpt lat="43.76545" lon="3.32455">
        <ele>299</ele>
        <time>2018-04-07T08:03:51Z</time>
      </trkpt>
      <trkpt lat="43.76585" lon="3.32493">
        <ele>305</ele>
        <time>2018-04-07T08:04:09Z</time>
      </trkpt>
      <trkpt lat="43.76609" lon="3.32502">
        <ele>309</ele>
        <time>2018-04-07T08:04:18Z</time>
      </trkpt>
      <trkpt lat="43.76632" lon="3.32511">
        <ele>312</ele>
        <time>2018-04-07T08:04:29Z</time>
      </trkpt>
      <trkpt lat="43.76654" lon="3.32501">
        <ele>321</ele>
        <time>2018-04-07T08:06:42Z</time>
      </trkpt>
      <trkpt lat="43.76676" lon="3.32498">
        <ele>324</ele>
        <time>2018-04-07T08:06:49Z</time>
      </trkpt>
      <trkpt lat="43.76724" lon="3.32498">
        <ele>326</ele>
        <time>2018-04-07T08:07:07Z</time>
      </trkpt>
      <trkpt lat="43.76747" lon="3.3249">
        <ele>328</ele>
        <time>2018-04-07T08:07:18Z</time>
      </trkpt>
      <trkpt lat="43.76771" lon="3.32485">
        <ele>330</ele>
        <time>2018-04-07T08:07:28Z</time>
      </trkpt>
      <trkpt lat="43.76794" lon="3.32487">
        <ele>331</ele>
        <time>2018-04-07T08:07:39Z</time>
      </trkpt>
      <trkpt lat="43.76817" lon="3.32497">
        <ele>332</ele>
        <time>2018-04-07T08:07:50Z</time>
      </trkpt>
      <trkpt lat="43.76841" lon="3.32498">
        <ele>333</ele>
        <time>2018-04-07T08:08:00Z</time>
      </trkpt>
      <trkpt lat="43.76902" lon="3.32443">
        <ele>338</ele>
        <time>2018-04-07T08:08:28Z</time>
      </trkpt>
      <trkpt lat="43.76967" lon="3.32404">
        <ele>344</ele>
        <time>2018-04-07T08:09:02Z</time>
      </trkpt>
      <trkpt lat="43.77005" lon="3.32368">
        <ele>350</ele>
        <time>2018-04-07T08:09:20Z</time>
      </trkpt>
      <trkpt lat="43.77019" lon="3.32339">
        <ele>351</ele>
        <time>2018-04-07T08:09:30Z</time>
      </trkpt>
      <trkpt lat="43.77038" lon="3.32319">
        <ele>353</ele>
        <time>2018-04-07T08:09:40Z</time>
      </trkpt>
      <trkpt lat="43.7708" lon="3.3229">
        <ele>359</ele>
        <time>2018-04-07T08:10:02Z</time>
      </trkpt>
      <trkpt lat="43.77149" lon="3.32261">
        <ele>366</ele>
        <time>2018-04-07T08:10:31Z</time>
      </trkpt>
      <trkpt lat="43.77189" lon="3.32225">
        <ele>368</ele>
        <time>2018-04-07T08:10:42Z</time>
      </trkpt>
      <trkpt lat="43.77218" lon="3.32082">
        <ele>366</ele>
        <time>2018-04-07T08:11:14Z</time>
      </trkpt>
      <trkpt lat="43.77225" lon="3.32052">
        <ele>365</ele>
        <time>2018-04-07T08:11:22Z</time>
      </trkpt>
      <trkpt lat="43.7724" lon="3.32029">
        <ele>365</ele>
        <time>2018-04-07T08:11:31Z</time>
      </trkpt>
      <trkpt lat="43.77281" lon="3.31995">
        <ele>368</ele>
        <time>2018-04-07T08:11:46Z</time>
      </trkpt>
      <trkpt lat="43.77298" lon="3.31974">
        <ele>369</ele>
        <time>2018-04-07T08:11:57Z</time>
      </trkpt>
      <trkpt lat="43.77341" lon="3.31856">
        <ele>374</ele>
        <time>2018-04-07T08:12:29Z</time>
      </trkpt>
      <trkpt lat="43.77364" lon="3.31851">
        <ele>376</ele>
        <time>2018-04-07T08:12:41Z</time>
      </trkpt>
      <trkpt lat="43.77376" lon="3.31785">
        <ele>379</ele>
        <time>2018-04-07T08:12:57Z</time>
      </trkpt>
      <trkpt lat="43.77395" lon="3.31762">
        <ele>380</ele>
        <time>2018-04-07T08:13:06Z</time>
      </trkpt>
      <trkpt lat="43.77442" lon="3.31685">
        <ele>386</ele>
        <time>2018-04-07T08:13:36Z</time>
      </trkpt>
      <trkpt lat="43.7745" lon="3.31655">
        <ele>387</ele>
        <time>2018-04-07T08:13:46Z</time>
      </trkpt>
      <trkpt lat="43.77466" lon="3.31634">
        <ele>387</ele>
        <time>2018-04-07T08:13:56Z</time>
      </trkpt>
      <trkpt lat="43.77481" lon="3.31608">
        <ele>387</ele>
        <time>2018-04-07T08:14:09Z</time>
      </trkpt>
      <trkpt lat="43.77528" lon="3.31537">
        <ele>391</ele>
        <time>2018-04-07T08:14:41Z</time>
      </trkpt>
      <trkpt lat="43.77539" lon="3.31475">
        <ele>394</ele>
        <time>2018-04-07T08:15:06Z</time>
      </trkpt>
      <trkpt lat="43.77559" lon="3.31457">
        <ele>395</ele>
        <time>2018-04-07T08:15:19Z</time>
      </trkpt>
      <trkpt lat="43.77566" lon="3.31427">
        <ele>396</ele>
        <time>2018-04-07T08:15:30Z</time>
      </trkpt>
      <trkpt lat="43.77578" lon="3.31397">
        <ele>399</ele>
        <time>2018-04-07T08:15:44Z</time>
      </trkpt>
      <trkpt lat="43.77593" lon="3.31372">
        <ele>402</ele>
        <time>2018-04-07T08:15:57Z</time>
      </trkpt>
      <trkpt lat="43.77612" lon="3.31313">
        <ele>406</ele>
        <time>2018-04-07T08:16:20Z</time>
      </trkpt>
      <trkpt lat="43.77617" lon="3.31279">
        <ele>420</ele>
        <time>2018-04-07T08:19:30Z</time>
      </trkpt>
      <trkpt lat="43.77632" lon="3.31255">
        <ele>430</ele>
        <time>2018-04-07T08:19:55Z</time>
      </trkpt>
      <trkpt lat="43.7765" lon="3.31235">
        <ele>431</ele>
        <time>2018-04-07T08:20:24Z</time>
      </trkpt>
      <trkpt lat="43.77692" lon="3.31208">
        <ele>435</ele>
        <time>2018-04-07T08:21:03Z</time>
      </trkpt>
      <trkpt lat="43.77714" lon="3.31201">
        <ele>438</ele>
        <time>2018-04-07T08:21:20Z</time>
      </trkpt>
      <trkpt lat="43.77759" lon="3.31208">
        <ele>446</ele>
        <time>2018-04-07T08:21:54Z</time>
      </trkpt>
      <trkpt lat="43.77829" lon="3.31213">
        <ele>463</ele>
        <time>2018-04-07T08:22:40Z</time>
      </trkpt>
      <trkpt lat="43.77875" lon="3.31219">
        <ele>475</ele>
        <time>2018-04-07T08:23:10Z</time>
      </trkpt>
      <trkpt lat="43.77946" lon="3.3122">
        <ele>494</ele>
        <time>2018-04-07T08:23:53Z</time>
      </trkpt>
      <trkpt lat="43.77968" lon="3.31213">
        <ele>498</ele>
        <time>2018-04-07T08:24:07Z</time>
      </trkpt>
      <trkpt lat="43.77988" lon="3.312">
        <ele>500</ele>
        <time>2018-04-07T08:24:20Z</time>
      </trkpt>
      <trkpt lat="43.78034" lon="3.31189">
        <ele>508</ele>
        <time>2018-04-07T08:24:52Z</time>
      </trkpt>
      <trkpt lat="43.78034" lon="3.31157">
        <ele>509</ele>
        <time>2018-04-07T08:25:09Z</time>
      </trkpt>
      <trkpt lat="43.77967" lon="3.31132">
        <ele>506</ele>
        <time>2018-04-07T08:25:53Z</time>
      </trkpt>
      <trkpt lat="43.77899" lon="3.31119">
        <ele>504</ele>
        <time>2018-04-07T08:26:28Z</time>
      </trkpt>
      <trkpt lat="43.77876" lon="3.31113">
        <ele>503</ele>
        <time>2018-04-07T08:26:40Z</time>
      </trkpt>
      <trkpt lat="43.77855" lon="3.31097">
        <ele>503</ele>
        <time>2018-04-07T08:26:55Z</time>
      </trkpt>
      <trkpt lat="43.77831" lon="3.31093">
        <ele>505</ele>
        <time>2018-04-07T08:27:08Z</time>
      </trkpt>
      <trkpt lat="43.77786" lon="3.31074">
        <ele>505</ele>
        <time>2018-04-07T08:27:35Z</time>
      </trkpt>
      <trkpt lat="43.77767" lon="3.31056">
        <ele>504</ele>
        <time>2018-04-07T08:27:48Z</time>
      </trkpt>
      <trkpt lat="43.77742" lon="3.31063">
        <ele>503</ele>
        <time>2018-04-07T08:27:58Z</time>
      </trkpt>
      <trkpt lat="43.77742" lon="3.31066">
        <ele>516</ele>
        <time>2018-04-07T08:31:11Z</time>
      </trkpt>
      <trkpt lat="43.77811" lon="3.31065">
        <ele>518</ele>
        <time>2018-04-07T08:31:49Z</time>
      </trkpt>
      <trkpt lat="43.77834" lon="3.31071">
        <ele>518</ele>
        <time>2018-04-07T08:32:00Z</time>
      </trkpt>
      <trkpt lat="43.77881" lon="3.31069">
        <ele>518</ele>
        <time>2018-04-07T08:32:21Z</time>
      </trkpt>
      <trkpt lat="43.77905" lon="3.31067">
        <ele>519</ele>
        <time>2018-04-07T08:32:31Z</time>
      </trkpt>
      <trkpt lat="43.77974" lon="3.31053">
        <ele>525</ele>
        <time>2018-04-07T08:33:02Z</time>
      </trkpt>
      <trkpt lat="43.77998" lon="3.31049">
        <ele>528</ele>
        <time>2018-04-07T08:33:17Z</time>
      </trkpt>
      <trkpt lat="43.78018" lon="3.31031">
        <ele>531</ele>
        <time>2018-04-07T08:33:27Z</time>
      </trkpt>
      <trkpt lat="43.78041" lon="3.31039">
        <ele>532</ele>
        <time>2018-04-07T08:33:40Z</time>
      </trkpt>
      <trkpt lat="43.7806" lon="3.31059">
        <ele>533</ele>
        <time>2018-04-07T08:33:51Z</time>
      </trkpt>
      <trkpt lat="43.78084" lon="3.31064">
        <ele>533</ele>
        <time>2018-04-07T08:34:01Z</time>
      </trkpt>
      <trkpt lat="43.78132" lon="3.31049">
        <ele>535</ele>
        <time>2018-04-07T08:34:21Z</time>
      </trkpt>
      <trkpt lat="43.78201" lon="3.31011">
        <ele>538</ele>
        <time>2018-04-07T08:34:56Z</time>
      </trkpt>
      <trkpt lat="43.78261" lon="3.30955">
        <ele>541</ele>
        <time>2018-04-07T08:35:29Z</time>
      </trkpt>
      <trkpt lat="43.78277" lon="3.30931">
        <ele>544</ele>
        <time>2018-04-07T08:35:36Z</time>
      </trkpt>
      <trkpt lat="43.78332" lon="3.30826">
        <ele>562</ele>
        <time>2018-04-07T08:36:08Z</time>
      </trkpt>
      <trkpt lat="43.78378" lon="3.30751">
        <ele>576</ele>
        <time>2018-04-07T08:36:38Z</time>
      </trkpt>
      <trkpt lat="43.78411" lon="3.307">
        <ele>581</ele>
        <time>2018-04-07T08:36:57Z</time>
      </trkpt>
      <trkpt lat="43.7842" lon="3.30671">
        <ele>584</ele>
        <time>2018-04-07T08:37:05Z</time>
      </trkpt>
      <trkpt lat="43.78425" lon="3.30638">
        <ele>586</ele>
        <time>2018-04-07T08:37:14Z</time>
      </trkpt>
      <trkpt lat="43.78402" lon="3.30649">
        <ele>588</ele>
        <time>2018-04-07T08:37:27Z</time>
      </trkpt>
      <trkpt lat="43.78372" lon="3.30697">
        <ele>591</ele>
        <time>2018-04-07T08:37:49Z</time>
      </trkpt>
      <trkpt lat="43.78345" lon="3.30686">
        <ele>591</ele>
        <time>2018-04-07T08:38:00Z</time>
      </trkpt>
      <trkpt lat="43.78328" lon="3.30706">
        <ele>592</ele>
        <time>2018-04-07T08:38:07Z</time>
      </trkpt>
      <trkpt lat="43.78261" lon="3.30796">
        <ele>601</ele>
        <time>2018-04-07T08:38:43Z</time>
      </trkpt>
      <trkpt lat="43.78277" lon="3.30772">
        <ele>605</ele>
        <time>2018-04-07T08:39:16Z</time>
      </trkpt>
      <trkpt lat="43.78293" lon="3.30749">
        <ele>610</ele>
        <time>2018-04-07T08:39:27Z</time>
      </trkpt>
      <trkpt lat="43.78341" lon="3.3067">
        <ele>618</ele>
        <time>2018-04-07T08:39:55Z</time>
      </trkpt>
      <trkpt lat="43.78354" lon="3.30642">
        <ele>620</ele>
        <time>2018-04-07T08:40:03Z</time>
      </trkpt>
      <trkpt lat="43.78373" lon="3.30545">
        <ele>624</ele>
        <time>2018-04-07T08:40:30Z</time>
      </trkpt>
      <trkpt lat="43.78397" lon="3.30485">
        <ele>628</ele>
        <time>2018-04-07T08:40:47Z</time>
      </trkpt>
      <trkpt lat="43.78441" lon="3.30409">
        <ele>633</ele>
        <time>2018-04-07T08:41:15Z</time>
      </trkpt>
      <trkpt lat="43.78457" lon="3.30384">
        <ele>637</ele>
        <time>2018-04-07T08:41:27Z</time>
      </trkpt>
      <trkpt lat="43.78465" lon="3.30354">
        <ele>640</ele>
        <time>2018-04-07T08:41:36Z</time>
      </trkpt>
      <trkpt lat="43.78475" lon="3.30323">
        <ele>643</ele>
        <time>2018-04-07T08:41:44Z</time>
      </trkpt>
      <trkpt lat="43.78498" lon="3.30265">
        <ele>646</ele>
        <time>2018-04-07T08:42:12Z</time>
      </trkpt>
      <trkpt lat="43.78508" lon="3.30243">
        <ele>647</ele>
        <time>2018-04-07T08:42:51Z</time>
      </trkpt>
      <trkpt lat="43.78544" lon="3.30202">
        <ele>652</ele>
        <time>2018-04-07T08:43:25Z</time>
      </trkpt>
      <trkpt lat="43.78567" lon="3.30196">
        <ele>653</ele>
        <time>2018-04-07T08:43:45Z</time>
      </trkpt>
      <trkpt lat="43.78587" lon="3.30177">
        <ele>655</ele>
        <time>2018-04-07T08:43:54Z</time>
      </trkpt>
      <trkpt lat="43.78609" lon="3.30167">
        <ele>657</ele>
        <time>2018-04-07T08:44:03Z</time>
      </trkpt>
      <trkpt lat="43.78655" lon="3.30155">
        <ele>659</ele>
        <time>2018-04-07T08:44:28Z</time>
      </trkpt>
      <trkpt lat="43.78676" lon="3.30143">
        <ele>660</ele>
        <time>2018-04-07T08:44:40Z</time>
      </trkpt>
      <trkpt lat="43.78694" lon="3.30122">
        <ele>659</ele>
        <time>2018-04-07T08:44:47Z</time>
      </trkpt>
      <trkpt lat="43.78734" lon="3.30087">
        <ele>665</ele>
        <time>2018-04-07T08:45:50Z</time>
      </trkpt>
      <trkpt lat="43.78755" lon="3.30076">
        <ele>667</ele>
        <time>2018-04-07T08:46:03Z</time>
      </trkpt>
      <trkpt lat="43.78778" lon="3.30074">
        <ele>668</ele>
        <time>2018-04-07T08:46:13Z</time>
      </trkpt>
      <trkpt lat="43.788" lon="3.30069">
        <ele>669</ele>
        <time>2018-04-07T08:46:21Z</time>
      </trkpt>
      <trkpt lat="43.78824" lon="3.30067">
        <ele>669</ele>
        <time>2018-04-07T08:46:32Z</time>
      </trkpt>
      <trkpt lat="43.78847" lon="3.30058">
        <ele>670</ele>
        <time>2018-04-07T08:46:48Z</time>
      </trkpt>
      <trkpt lat="43.78869" lon="3.30045">
        <ele>672</ele>
        <time>2018-04-07T08:46:54Z</time>
      </trkpt>
      <trkpt lat="43.78937" lon="3.29956">
        <ele>677</ele>
        <time>2018-04-07T08:47:27Z</time>
      </trkpt>
      <trkpt lat="43.7896" lon="3.29956">
        <ele>676</ele>
        <time>2018-04-07T08:47:40Z</time>
      </trkpt>
      <trkpt lat="43.78984" lon="3.29952">
        <ele>678</ele>
        <time>2018-04-07T08:48:21Z</time>
      </trkpt>
      <trkpt lat="43.79008" lon="3.29951">
        <ele>678</ele>
        <time>2018-04-07T08:48:27Z</time>
      </trkpt>
      <trkpt lat="43.79055" lon="3.29976">
        <ele>677</ele>
        <time>2018-04-07T08:48:41Z</time>
      </trkpt>
      <trkpt lat="43.79068" lon="3.30001">
        <ele>676</ele>
        <time>2018-04-07T08:48:49Z</time>
      </trkpt>
      <trkpt lat="43.79137" lon="3.29967">
        <ele>676</ele>
        <time>2018-04-07T08:49:07Z</time>
      </trkpt>
      <trkpt lat="43.79159" lon="3.29957">
        <ele>675</ele>
        <time>2018-04-07T08:49:15Z</time>
      </trkpt>
      <trkpt lat="43.79231" lon="3.29985">
        <ele>675</ele>
        <time>2018-04-07T08:49:39Z</time>
      </trkpt>
      <trkpt lat="43.79254" lon="3.29997">
        <ele>674</ele>
        <time>2018-04-07T08:49:46Z</time>
      </trkpt>
      <trkpt lat="43.79277" lon="3.29993">
        <ele>672</ele>
        <time>2018-04-07T08:49:51Z</time>
      </trkpt>
      <trkpt lat="43.79313" lon="3.29944">
        <ele>674</ele>
        <time>2018-04-07T08:50:02Z</time>
      </trkpt>
      <trkpt lat="43.79332" lon="3.29926">
        <ele>674</ele>
        <time>2018-04-07T08:50:10Z</time>
      </trkpt>
      <trkpt lat="43.79353" lon="3.29912">
        <ele>675</ele>
        <time>2018-04-07T08:50:17Z</time>
      </trkpt>
      <trkpt lat="43.79376" lon="3.299">
        <ele>684</ele>
        <time>2018-04-07T08:51:46Z</time>
      </trkpt>
      <trkpt lat="43.79442" lon="3.29902">
        <ele>682</ele>
        <time>2018-04-07T08:51:56Z</time>
      </trkpt>
      <trkpt lat="43.79498" lon="3.29905">
        <ele>681</ele>
        <time>2018-04-07T08:52:04Z</time>
      </trkpt>
      <trkpt lat="43.79544" lon="3.29939">
        <ele>679</ele>
        <time>2018-04-07T08:52:12Z</time>
      </trkpt>
      <trkpt lat="43.79637" lon="3.29985">
        <ele>677</ele>
        <time>2018-04-07T08:52:39Z</time>
      </trkpt>
      <trkpt lat="43.79663" lon="3.29992">
        <ele>676</ele>
        <time>2018-04-07T08:52:43Z</time>
      </trkpt>
      <trkpt lat="43.79686" lon="3.3">
        <ele>674</ele>
        <time>2018-04-07T08:52:50Z</time>
      </trkpt>
      <trkpt lat="43.79705" lon="3.30017">
        <ele>672</ele>
        <time>2018-04-07T08:52:58Z</time>
      </trkpt>
      <trkpt lat="43.79729" lon="3.30014">
        <ele>672</ele>
        <time>2018-04-07T08:53:05Z</time>
      </trkpt>
      <trkpt lat="43.79802" lon="3.30019">
        <ele>673</ele>
        <time>2018-04-07T08:53:25Z</time>
      </trkpt>
      <trkpt lat="43.79898" lon="3.29987">
        <ele>676</ele>
        <time>2018-04-07T08:53:56Z</time>
      </trkpt>
      <trkpt lat="43.79915" lon="3.29962">
        <ele>677</ele>
        <time>2018-04-07T08:54:07Z</time>
      </trkpt>
      <trkpt lat="43.79903" lon="3.29897">
        <ele>681</ele>
        <time>2018-04-07T08:54:30Z</time>
      </trkpt>
      <trkpt lat="43.79918" lon="3.29921">
        <ele>681</ele>
        <time>2018-04-07T08:58:13Z</time>
      </trkpt>
      <trkpt lat="43.79932" lon="3.29946">
        <ele>680</ele>
        <time>2018-04-07T08:58:20Z</time>
      </trkpt>
      <trkpt lat="43.79977" lon="3.29962">
        <ele>680</ele>
        <time>2018-04-07T08:58:42Z</time>
      </trkpt>
      <trkpt lat="43.8" lon="3.29965">
        <ele>680</ele>
        <time>2018-04-07T08:58:53Z</time>
      </trkpt>
      <trkpt lat="43.80023" lon="3.29966">
        <ele>680</ele>
        <time>2018-04-07T08:59:05Z</time>
      </trkpt>
      <trkpt lat="43.80043" lon="3.29951">
        <ele>681</ele>
        <time>2018-04-07T08:59:18Z</time>
      </trkpt>
      <trkpt lat="43.8003" lon="3.29924">
        <ele>683</ele>
        <time>2018-04-07T08:59:30Z</time>
      </trkpt>
      <trkpt lat="43.79994" lon="3.2988">
        <ele>685</ele>
        <time>2018-04-07T08:59:54Z</time>
      </trkpt>
      <trkpt lat="43.79979" lon="3.29854">
        <ele>688</ele>
        <time>2018-04-07T09:00:06Z</time>
      </trkpt>
      <trkpt lat="43.79968" lon="3.29826">
        <ele>690</ele>
        <time>2018-04-07T09:00:17Z</time>
      </trkpt>
      <trkpt lat="43.79972" lon="3.29794">
        <ele>692</ele>
        <time>2018-04-07T09:00:29Z</time>
      </trkpt>
      <trkpt lat="43.79975" lon="3.29729">
        <ele>695</ele>
        <time>2018-04-07T09:00:50Z</time>
      </trkpt>
      <trkpt lat="43.79969" lon="3.29696">
        <ele>698</ele>
        <time>2018-04-07T09:01:02Z</time>
      </trkpt>
      <trkpt lat="43.79975" lon="3.29665">
        <ele>703</ele>
        <time>2018-04-07T09:01:15Z</time>
      </trkpt>
      <trkpt lat="43.79987" lon="3.29636">
        <ele>706</ele>
        <time>2018-04-07T09:01:27Z</time>
      </trkpt>
      <trkpt lat="43.80003" lon="3.29612">
        <ele>708</ele>
        <time>2018-04-07T09:01:39Z</time>
      </trkpt>
      <trkpt lat="43.80019" lon="3.29552">
        <ele>711</ele>
        <time>2018-04-07T09:02:00Z</time>
      </trkpt>
      <trkpt lat="43.80036" lon="3.29529">
        <ele>713</ele>
        <time>2018-04-07T09:02:12Z</time>
      </trkpt>
      <trkpt lat="43.8006" lon="3.29526">
        <ele>716</ele>
        <time>2018-04-07T09:02:24Z</time>
      </trkpt>
      <trkpt lat="43.80079" lon="3.29467">
        <ele>720</ele>
        <time>2018-04-07T09:02:42Z</time>
      </trkpt>
      <trkpt lat="43.80091" lon="3.29438">
        <ele>721</ele>
        <time>2018-04-07T09:02:51Z</time>
      </trkpt>
      <trkpt lat="43.80098" lon="3.29408">
        <ele>723</ele>
        <time>2018-04-07T09:02:59Z</time>
      </trkpt>
      <trkpt lat="43.8009" lon="3.29377">
        <ele>724</ele>
        <time>2018-04-07T09:03:06Z</time>
      </trkpt>
      <trkpt lat="43.80108" lon="3.29211">
        <ele>728</ele>
        <time>2018-04-07T09:03:37Z</time>
      </trkpt>
      <trkpt lat="43.80112" lon="3.2918">
        <ele>727</ele>
        <time>2018-04-07T09:03:43Z</time>
      </trkpt>
      <trkpt lat="43.80104" lon="3.2911">
        <ele>726</ele>
        <time>2018-04-07T09:03:56Z</time>
      </trkpt>
      <trkpt lat="43.80106" lon="3.29076">
        <ele>726</ele>
        <time>2018-04-07T09:04:01Z</time>
      </trkpt>
      <trkpt lat="43.80127" lon="3.29017">
        <ele>726</ele>
        <time>2018-04-07T09:04:12Z</time>
      </trkpt>
      <trkpt lat="43.80133" lon="3.28985">
        <ele>728</ele>
        <time>2018-04-07T09:04:20Z</time>
      </trkpt>
      <trkpt lat="43.8011" lon="3.2885">
        <ele>726</ele>
        <time>2018-04-07T09:04:42Z</time>
      </trkpt>
      <trkpt lat="43.80117" lon="3.28778">
        <ele>726</ele>
        <time>2018-04-07T09:04:51Z</time>
      </trkpt>
      <trkpt lat="43.80139" lon="3.28723">
        <ele>725</ele>
        <time>2018-04-07T09:05:00Z</time>
      </trkpt>
      <trkpt lat="43.80158" lon="3.287">
        <ele>724</ele>
        <time>2018-04-07T09:05:07Z</time>
      </trkpt>
      <trkpt lat="43.80173" lon="3.28671">
        <ele>724</ele>
        <time>2018-04-07T09:05:15Z</time>
      </trkpt>
      <trkpt lat="43.80215" lon="3.28631">
        <ele>722</ele>
        <time>2018-04-07T09:05:28Z</time>
      </trkpt>
      <trkpt lat="43.80226" lon="3.28601">
        <ele>722</ele>
        <time>2018-04-07T09:05:36Z</time>
      </trkpt>
      <trkpt lat="43.80239" lon="3.28496">
        <ele>721</ele>
        <time>2018-04-07T09:05:53Z</time>
      </trkpt>
      <trkpt lat="43.80262" lon="3.28441">
        <ele>718</ele>
        <time>2018-04-07T09:06:06Z</time>
      </trkpt>
      <trkpt lat="43.80284" lon="3.28422">
        <ele>718</ele>
        <time>2018-04-07T09:06:15Z</time>
      </trkpt>
      <trkpt lat="43.80326" lon="3.28336">
        <ele>720</ele>
        <time>2018-04-07T09:06:35Z</time>
      </trkpt>
      <trkpt lat="43.80331" lon="3.28302">
        <ele>720</ele>
        <time>2018-04-07T09:06:42Z</time>
      </trkpt>
      <trkpt lat="43.8034" lon="3.28273">
        <ele>720</ele>
        <time>2018-04-07T09:06:49Z</time>
      </trkpt>
      <trkpt lat="43.80345" lon="3.28239">
        <ele>720</ele>
        <time>2018-04-07T09:06:55Z</time>
      </trkpt>
      <trkpt lat="43.80353" lon="3.2821">
        <ele>721</ele>
        <time>2018-04-07T09:07:04Z</time>
      </trkpt>
      <trkpt lat="43.80412" lon="3.28149">
        <ele>725</ele>
        <time>2018-04-07T09:07:25Z</time>
      </trkpt>
      <trkpt lat="43.80433" lon="3.28137">
        <ele>726</ele>
        <time>2018-04-07T09:07:32Z</time>
      </trkpt>
      <trkpt lat="43.80478" lon="3.2814">
        <ele>728</ele>
        <time>2018-04-07T09:07:45Z</time>
      </trkpt>
      <trkpt lat="43.80525" lon="3.28123">
        <ele>728</ele>
        <time>2018-04-07T09:07:59Z</time>
      </trkpt>
      <trkpt lat="43.80566" lon="3.2807">
        <ele>730</ele>
        <time>2018-04-07T09:08:09Z</time>
      </trkpt>
      <trkpt lat="43.80592" lon="3.28057">
        <ele>732</ele>
        <time>2018-04-07T09:08:15Z</time>
      </trkpt>
      <trkpt lat="43.80609" lon="3.28034">
        <ele>733</ele>
        <time>2018-04-07T09:08:19Z</time>
      </trkpt>
      <trkpt lat="43.80669" lon="3.27965">
        <ele>733</ele>
        <time>2018-04-07T09:08:32Z</time>
      </trkpt>
      <trkpt lat="43.80692" lon="3.27962">
        <ele>733</ele>
        <time>2018-04-07T09:08:38Z</time>
      </trkpt>
      <trkpt lat="43.80744" lon="3.27986">
        <ele>733</ele>
        <time>2018-04-07T09:08:48Z</time>
      </trkpt>
      <trkpt lat="43.80843" lon="3.27996">
        <ele>729</ele>
        <time>2018-04-07T09:09:05Z</time>
      </trkpt>
      <trkpt lat="43.80933" lon="3.28056">
        <ele>725</ele>
        <time>2018-04-07T09:09:26Z</time>
      </trkpt>
      <trkpt lat="43.80958" lon="3.28066">
        <ele>724</ele>
        <time>2018-04-07T09:09:32Z</time>
      </trkpt>
      <trkpt lat="43.80983" lon="3.28059">
        <ele>723</ele>
        <time>2018-04-07T09:09:37Z</time>
      </trkpt>
      <trkpt lat="43.8101" lon="3.2806">
        <ele>722</ele>
        <time>2018-04-07T09:09:43Z</time>
      </trkpt>
      <trkpt lat="43.81107" lon="3.2803">
        <ele>722</ele>
        <time>2018-04-07T09:10:09Z</time>
      </trkpt>
      <trkpt lat="43.81132" lon="3.28029">
        <ele>724</ele>
        <time>2018-04-07T09:10:16Z</time>
      </trkpt>
      <trkpt lat="43.81198" lon="3.2808">
        <ele>727</ele>
        <time>2018-04-07T09:10:37Z</time>
      </trkpt>
      <trkpt lat="43.81244" lon="3.28067">
        <ele>728</ele>
        <time>2018-04-07T09:10:47Z</time>
      </trkpt>
      <trkpt lat="43.81287" lon="3.28038">
        <ele>730</ele>
        <time>2018-04-07T09:11:01Z</time>
      </trkpt>
      <trkpt lat="43.81436" lon="3.2804">
        <ele>735</ele>
        <time>2018-04-07T09:11:33Z</time>
      </trkpt>
      <trkpt lat="43.81537" lon="3.28021">
        <ele>735</ele>
        <time>2018-04-07T09:11:57Z</time>
      </trkpt>
      <trkpt lat="43.81601" lon="3.27978">
        <ele>735</ele>
        <time>2018-04-07T09:12:14Z</time>
      </trkpt>
      <trkpt lat="43.8162" lon="3.27958">
        <ele>734</ele>
        <time>2018-04-07T09:12:19Z</time>
      </trkpt>
      <trkpt lat="43.81652" lon="3.27913">
        <ele>733</ele>
        <time>2018-04-07T09:12:54Z</time>
      </trkpt>
      <trkpt lat="43.81669" lon="3.27887">
        <ele>730</ele>
        <time>2018-04-07T09:14:18Z</time>
      </trkpt>
      <trkpt lat="43.81688" lon="3.27866">
        <ele>732</ele>
        <time>2018-04-07T09:14:24Z</time>
      </trkpt>
      <trkpt lat="43.8175" lon="3.27809">
        <ele>732</ele>
        <time>2018-04-07T09:14:38Z</time>
      </trkpt>
      <trkpt lat="43.81773" lon="3.27797">
        <ele>732</ele>
        <time>2018-04-07T09:14:42Z</time>
      </trkpt>
      <trkpt lat="43.81793" lon="3.27781">
        <ele>731</ele>
        <time>2018-04-07T09:14:46Z</time>
      </trkpt>
      <trkpt lat="43.8181" lon="3.27757">
        <ele>730</ele>
        <time>2018-04-07T09:14:51Z</time>
      </trkpt>
      <trkpt lat="43.81848" lon="3.2771">
        <ele>729</ele>
        <time>2018-04-07T09:15:01Z</time>
      </trkpt>
      <trkpt lat="43.81869" lon="3.27697">
        <ele>728</ele>
        <time>2018-04-07T09:15:07Z</time>
      </trkpt>
      <trkpt lat="43.81891" lon="3.27678">
        <ele>728</ele>
        <time>2018-04-07T09:15:14Z</time>
      </trkpt>
      <trkpt lat="43.81934" lon="3.27654">
        <ele>728</ele>
        <time>2018-04-07T09:15:25Z</time>
      </trkpt>
      <trkpt lat="43.81939" lon="3.27619">
        <ele>728</ele>
        <time>2018-04-07T09:15:33Z</time>
      </trkpt>
      <trkpt lat="43.81874" lon="3.27469">
        <ele>733</ele>
        <time>2018-04-07T09:16:03Z</time>
      </trkpt>
      <trkpt lat="43.81834" lon="3.27436">
        <ele>735</ele>
        <time>2018-04-07T09:16:14Z</time>
      </trkpt>
      <trkpt lat="43.8181" lon="3.27431">
        <ele>736</ele>
        <time>2018-04-07T09:16:20Z</time>
      </trkpt>
      <trkpt lat="43.81787" lon="3.27418">
        <ele>737</ele>
        <time>2018-04-07T09:16:29Z</time>
      </trkpt>
      <trkpt lat="43.81769" lon="3.27398">
        <ele>738</ele>
        <time>2018-04-07T09:16:35Z</time>
      </trkpt>
      <trkpt lat="43.8172" lon="3.27364">
        <ele>737</ele>
        <time>2018-04-07T09:16:44Z</time>
      </trkpt>
      <trkpt lat="43.81663" lon="3.27299">
        <ele>737</ele>
        <time>2018-04-07T09:16:57Z</time>
      </trkpt>
      <trkpt lat="43.81653" lon="3.27267">
        <ele>736</ele>
        <time>2018-04-07T09:17:04Z</time>
      </trkpt>
      <trkpt lat="43.81623" lon="3.27216">
        <ele>736</ele>
        <time>2018-04-07T09:17:17Z</time>
      </trkpt>
      <trkpt lat="43.81606" lon="3.27193">
        <ele>735</ele>
        <time>2018-04-07T09:17:22Z</time>
      </trkpt>
      <trkpt lat="43.81577" lon="3.27044">
        <ele>734</ele>
        <time>2018-04-07T09:17:42Z</time>
      </trkpt>
      <trkpt lat="43.81577" lon="3.2701">
        <ele>733</ele>
        <time>2018-04-07T09:17:47Z</time>
      </trkpt>
      <trkpt lat="43.81593" lon="3.26974">
        <ele>733</ele>
        <time>2018-04-07T09:17:52Z</time>
      </trkpt>
      <trkpt lat="43.81602" lon="3.2694">
        <ele>733</ele>
        <time>2018-04-07T09:17:57Z</time>
      </trkpt>
      <trkpt lat="43.81635" lon="3.26889">
        <ele>733</ele>
        <time>2018-04-07T09:18:09Z</time>
      </trkpt>
      <trkpt lat="43.81654" lon="3.26872">
        <ele>733</ele>
        <time>2018-04-07T09:18:13Z</time>
      </trkpt>
      <trkpt lat="43.81869" lon="3.26914">
        <ele>728</ele>
        <time>2018-04-07T09:18:35Z</time>
      </trkpt>
      <trkpt lat="43.81896" lon="3.26905">
        <ele>728</ele>
        <time>2018-04-07T09:18:38Z</time>
      </trkpt>
      <trkpt lat="43.81938" lon="3.2686">
        <ele>726</ele>
        <time>2018-04-07T09:18:44Z</time>
      </trkpt>
      <trkpt lat="43.81976" lon="3.26792">
        <ele>723</ele>
        <time>2018-04-07T09:18:50Z</time>
      </trkpt>
      <trkpt lat="43.81995" lon="3.26709">
        <ele>722</ele>
        <time>2018-04-07T09:18:56Z</time>
      </trkpt>
      <trkpt lat="43.81988" lon="3.26602">
        <ele>721</ele>
        <time>2018-04-07T09:19:05Z</time>
      </trkpt>
      <trkpt lat="43.81979" lon="3.26571">
        <ele>720</ele>
        <time>2018-04-07T09:19:09Z</time>
      </trkpt>
      <trkpt lat="43.8199" lon="3.26508">
        <ele>717</ele>
        <time>2018-04-07T09:19:15Z</time>
      </trkpt>
      <trkpt lat="43.82027" lon="3.26423">
        <ele>716</ele>
        <time>2018-04-07T09:19:30Z</time>
      </trkpt>
      <trkpt lat="43.82049" lon="3.26417">
        <ele>713</ele>
        <time>2018-04-07T09:20:29Z</time>
      </trkpt>
      <trkpt lat="43.82072" lon="3.26429">
        <ele>709</ele>
        <time>2018-04-07T09:20:39Z</time>
      </trkpt>
      <trkpt lat="43.8209" lon="3.26451">
        <ele>708</ele>
        <time>2018-04-07T09:20:48Z</time>
      </trkpt>
      <trkpt lat="43.8211" lon="3.26466">
        <ele>708</ele>
        <time>2018-04-07T09:20:51Z</time>
      </trkpt>
      <trkpt lat="43.82159" lon="3.26451">
        <ele>706</ele>
        <time>2018-04-07T09:20:59Z</time>
      </trkpt>
      <trkpt lat="43.82183" lon="3.26451">
        <ele>705</ele>
        <time>2018-04-07T09:21:04Z</time>
      </trkpt>
      <trkpt lat="43.82221" lon="3.26501">
        <ele>705</ele>
        <time>2018-04-07T09:21:15Z</time>
      </trkpt>
      <trkpt lat="43.82243" lon="3.26517">
        <ele>704</ele>
        <time>2018-04-07T09:21:21Z</time>
      </trkpt>
      <trkpt lat="43.82263" lon="3.26502">
        <ele>703</ele>
        <time>2018-04-07T09:21:26Z</time>
      </trkpt>
      <trkpt lat="43.82283" lon="3.26474">
        <ele>703</ele>
        <time>2018-04-07T09:21:30Z</time>
      </trkpt>
      <trkpt lat="43.82303" lon="3.26451">
        <ele>702</ele>
        <time>2018-04-07T09:21:35Z</time>
      </trkpt>
      <trkpt lat="43.82439" lon="3.26376">
        <ele>699</ele>
        <time>2018-04-07T09:22:10Z</time>
      </trkpt>
      <trkpt lat="43.82466" lon="3.26372">
        <ele>698</ele>
        <time>2018-04-07T09:22:15Z</time>
      </trkpt>
      <trkpt lat="43.82489" lon="3.26386">
        <ele>698</ele>
        <time>2018-04-07T09:22:20Z</time>
      </trkpt>
      <trkpt lat="43.82516" lon="3.26444">
        <ele>699</ele>
        <time>2018-04-07T09:22:33Z</time>
      </trkpt>
      <trkpt lat="43.82614" lon="3.26543">
        <ele>700</ele>
        <time>2018-04-07T09:23:04Z</time>
      </trkpt>
      <trkpt lat="43.8266" lon="3.26582">
        <ele>700</ele>
        <time>2018-04-07T09:23:15Z</time>
      </trkpt>
      <trkpt lat="43.82683" lon="3.26592">
        <ele>700</ele>
        <time>2018-04-07T09:23:21Z</time>
      </trkpt>
      <trkpt lat="43.82693" lon="3.26621">
        <ele>700</ele>
        <time>2018-04-07T09:23:26Z</time>
      </trkpt>
      <trkpt lat="43.82801" lon="3.2676">
        <ele>700</ele>
        <time>2018-04-07T09:23:58Z</time>
      </trkpt>
      <trkpt lat="43.82902" lon="3.26916">
        <ele>701</ele>
        <time>2018-04-07T09:24:31Z</time>
      </trkpt>
      <trkpt lat="43.82937" lon="3.26971">
        <ele>701</ele>
        <time>2018-04-07T09:24:40Z</time>
      </trkpt>
      <trkpt lat="43.82966" lon="3.27033">
        <ele>700</ele>
        <time>2018-04-07T09:24:48Z</time>
      </trkpt>
      <trkpt lat="43.83093" lon="3.27211">
        <ele>699</ele>
        <time>2018-04-07T09:25:16Z</time>
      </trkpt>
      <trkpt lat="43.83096" lon="3.2725">
        <ele>699</ele>
        <time>2018-04-07T09:25:20Z</time>
      </trkpt>
      <trkpt lat="43.83084" lon="3.27285">
        <ele>699</ele>
        <time>2018-04-07T09:25:24Z</time>
      </trkpt>
      <trkpt lat="43.8307" lon="3.27316">
        <ele>698</ele>
        <time>2018-04-07T09:25:29Z</time>
      </trkpt>
      <trkpt lat="43.83075" lon="3.27347">
        <ele>698</ele>
        <time>2018-04-07T09:25:32Z</time>
      </trkpt>
      <trkpt lat="43.83251" lon="3.27509">
        <ele>692</ele>
        <time>2018-04-07T09:26:01Z</time>
      </trkpt>
      <trkpt lat="43.83291" lon="3.27564">
        <ele>689</ele>
        <time>2018-04-07T09:26:09Z</time>
      </trkpt>
      <trkpt lat="43.83362" lon="3.27611">
        <ele>686</ele>
        <time>2018-04-07T09:26:21Z</time>
      </trkpt>
      <trkpt lat="43.83404" lon="3.27648">
        <ele>684</ele>
        <time>2018-04-07T09:26:28Z</time>
      </trkpt>
      <trkpt lat="43.83467" lon="3.27747">
        <ele>684</ele>
        <time>2018-04-07T09:26:40Z</time>
      </trkpt>
      <trkpt lat="43.83508" lon="3.27789">
        <ele>685</ele>
        <time>2018-04-07T09:26:46Z</time>
      </trkpt>
      <trkpt lat="43.8353" lon="3.27805">
        <ele>685</ele>
        <time>2018-04-07T09:26:49Z</time>
      </trkpt>
      <trkpt lat="43.83559" lon="3.27808">
        <ele>685</ele>
        <time>2018-04-07T09:26:53Z</time>
      </trkpt>
      <trkpt lat="43.83649" lon="3.27768">
        <ele>685</ele>
        <time>2018-04-07T09:27:05Z</time>
      </trkpt>
      <trkpt lat="43.837" lon="3.27803">
        <ele>685</ele>
        <time>2018-04-07T09:27:15Z</time>
      </trkpt>
      <trkpt lat="43.83724" lon="3.27807">
        <ele>684</ele>
        <time>2018-04-07T09:27:19Z</time>
      </trkpt>
      <trkpt lat="43.83769" lon="3.27826">
        <ele>682</ele>
        <time>2018-04-07T09:27:29Z</time>
      </trkpt>
      <trkpt lat="43.83866" lon="3.27834">
        <ele>681</ele>
        <time>2018-04-07T09:27:47Z</time>
      </trkpt>
      <trkpt lat="43.83934" lon="3.27816">
        <ele>681</ele>
        <time>2018-04-07T09:28:04Z</time>
      </trkpt>
      <trkpt lat="43.83954" lon="3.27831">
        <ele>681</ele>
        <time>2018-04-07T09:28:16Z</time>
      </trkpt>
      <trkpt lat="43.83928" lon="3.27885">
        <ele>685</ele>
        <time>2018-04-07T09:28:34Z</time>
      </trkpt>
      <trkpt lat="43.83929" lon="3.27916">
        <ele>686</ele>
        <time>2018-04-07T09:28:39Z</time>
      </trkpt>
      <trkpt lat="43.83912" lon="3.27975">
        <ele>690</ele>
        <time>2018-04-07T09:28:55Z</time>
      </trkpt>
      <trkpt lat="43.83907" lon="3.2801">
        <ele>689</ele>
        <time>2018-04-07T09:32:31Z</time>
      </trkpt>
      <trkpt lat="43.83908" lon="3.28048">
        <ele>690</ele>
        <time>2018-04-07T09:32:35Z</time>
      </trkpt>
      <trkpt lat="43.8392" lon="3.28248">
        <ele>683</ele>
        <time>2018-04-07T09:33:06Z</time>
      </trkpt>
      <trkpt lat="43.83915" lon="3.28282">
        <ele>682</ele>
        <time>2018-04-07T09:33:13Z</time>
      </trkpt>
      <trkpt lat="43.83899" lon="3.28306">
        <ele>682</ele>
        <time>2018-04-07T09:33:20Z</time>
      </trkpt>
      <trkpt lat="43.83884" lon="3.28333">
        <ele>685</ele>
        <time>2018-04-07T09:33:25Z</time>
      </trkpt>
      <trkpt lat="43.83868" lon="3.28356">
        <ele>686</ele>
        <time>2018-04-07T09:33:29Z</time>
      </trkpt>
      <trkpt lat="43.83861" lon="3.28424">
        <ele>687</ele>
        <time>2018-04-07T09:33:38Z</time>
      </trkpt>
      <trkpt lat="43.83835" lon="3.28568">
        <ele>686</ele>
        <time>2018-04-07T09:33:57Z</time>
      </trkpt>
      <trkpt lat="43.83836" lon="3.28608">
        <ele>685</ele>
        <time>2018-04-07T09:34:02Z</time>
      </trkpt>
      <trkpt lat="43.83851" lon="3.2868">
        <ele>683</ele>
        <time>2018-04-07T09:34:12Z</time>
      </trkpt>
      <trkpt lat="43.83857" lon="3.28751">
        <ele>680</ele>
        <time>2018-04-07T09:34:20Z</time>
      </trkpt>
      <trkpt lat="43.83884" lon="3.2885">
        <ele>676</ele>
        <time>2018-04-07T09:34:31Z</time>
      </trkpt>
      <trkpt lat="43.83888" lon="3.28885">
        <ele>675</ele>
        <time>2018-04-07T09:34:35Z</time>
      </trkpt>
      <trkpt lat="43.83882" lon="3.28922">
        <ele>674</ele>
        <time>2018-04-07T09:34:40Z</time>
      </trkpt>
      <trkpt lat="43.83869" lon="3.28948">
        <ele>673</ele>
        <time>2018-04-07T09:34:45Z</time>
      </trkpt>
      <trkpt lat="43.83843" lon="3.28959">
        <ele>672</ele>
        <time>2018-04-07T09:34:52Z</time>
      </trkpt>
      <trkpt lat="43.83822" lon="3.28977">
        <ele>673</ele>
        <time>2018-04-07T09:34:59Z</time>
      </trkpt>
      <trkpt lat="43.83805" lon="3.29083">
        <ele>673</ele>
        <time>2018-04-07T09:35:18Z</time>
      </trkpt>
      <trkpt lat="43.83789" lon="3.29106">
        <ele>673</ele>
        <time>2018-04-07T09:35:23Z</time>
      </trkpt>
      <trkpt lat="43.83702" lon="3.2922">
        <ele>682</ele>
        <time>2018-04-07T09:35:59Z</time>
      </trkpt>
      <trkpt lat="43.83684" lon="3.29242">
        <ele>684</ele>
        <time>2018-04-07T09:36:07Z</time>
      </trkpt>
      <trkpt lat="43.8365" lon="3.29285">
        <ele>684</ele>
        <time>2018-04-07T09:36:24Z</time>
      </trkpt>
      <trkpt lat="43.83619" lon="3.29335">
        <ele>686</ele>
        <time>2018-04-07T09:36:39Z</time>
      </trkpt>
      <trkpt lat="43.83608" lon="3.29396">
        <ele>686</ele>
        <time>2018-04-07T09:36:47Z</time>
      </trkpt>
      <trkpt lat="43.83602" lon="3.2947">
        <ele>685</ele>
        <time>2018-04-07T09:36:56Z</time>
      </trkpt>
      <trkpt lat="43.83605" lon="3.29505">
        <ele>683</ele>
        <time>2018-04-07T09:37:01Z</time>
      </trkpt>
      <trkpt lat="43.83609" lon="3.29539">
        <ele>680</ele>
        <time>2018-04-07T09:37:06Z</time>
      </trkpt>
      <trkpt lat="43.8361" lon="3.29572">
        <ele>679</ele>
        <time>2018-04-07T09:37:12Z</time>
      </trkpt>
      <trkpt lat="43.83614" lon="3.29603">
        <ele>678</ele>
        <time>2018-04-07T09:37:17Z</time>
      </trkpt>
      <trkpt lat="43.83615" lon="3.29635">
        <ele>676</ele>
        <time>2018-04-07T09:37:23Z</time>
      </trkpt>
      <trkpt lat="43.83606" lon="3.29665">
        <ele>676</ele>
        <time>2018-04-07T09:37:29Z</time>
      </trkpt>
      <trkpt lat="43.83596" lon="3.29696">
        <ele>678</ele>
        <time>2018-04-07T09:37:34Z</time>
      </trkpt>
      <trkpt lat="43.83584" lon="3.29723">
        <ele>679</ele>
        <time>2018-04-07T09:37:39Z</time>
      </trkpt>
      <trkpt lat="43.83569" lon="3.29828">
        <ele>685</ele>
        <time>2018-04-07T09:37:54Z</time>
      </trkpt>
      <trkpt lat="43.83556" lon="3.29858">
        <ele>686</ele>
        <time>2018-04-07T09:38:00Z</time>
      </trkpt>
      <trkpt lat="43.83537" lon="3.29916">
        <ele>685</ele>
        <time>2018-04-07T09:38:09Z</time>
      </trkpt>
      <trkpt lat="43.83535" lon="3.2995">
        <ele>684</ele>
        <time>2018-04-07T09:38:13Z</time>
      </trkpt>
      <trkpt lat="43.83572" lon="3.30072">
        <ele>677</ele>
        <time>2018-04-07T09:38:30Z</time>
      </trkpt>
      <trkpt lat="43.83567" lon="3.30102">
        <ele>675</ele>
        <time>2018-04-07T09:38:38Z</time>
      </trkpt>
      <trkpt lat="43.83546" lon="3.3012">
        <ele>675</ele>
        <time>2018-04-07T09:38:46Z</time>
      </trkpt>
      <trkpt lat="43.83509" lon="3.3008">
        <ele>676</ele>
        <time>2018-04-07T09:39:14Z</time>
      </trkpt>
      <trkpt lat="43.83519" lon="3.30104">
        <ele>679</ele>
        <time>2018-04-07T09:58:29Z</time>
      </trkpt>
      <trkpt lat="43.83537" lon="3.30122">
        <ele>675</ele>
        <time>2018-04-07T10:01:24Z</time>
      </trkpt>
      <trkpt lat="43.83521" lon="3.30144">
        <ele>678</ele>
        <time>2018-04-07T10:01:36Z</time>
      </trkpt>
      <trkpt lat="43.8351" lon="3.30171">
        <ele>678</ele>
        <time>2018-04-07T10:01:42Z</time>
      </trkpt>
      <trkpt lat="43.83508" lon="3.30203">
        <ele>678</ele>
        <time>2018-04-07T10:01:48Z</time>
      </trkpt>
      <trkpt lat="43.83508" lon="3.30236">
        <ele>678</ele>
        <time>2018-04-07T10:01:55Z</time>
      </trkpt>
      <trkpt lat="43.83484" lon="3.30253">
        <ele>677</ele>
        <time>2018-04-07T10:02:04Z</time>
      </trkpt>
      <trkpt lat="43.83461" lon="3.3027">
        <ele>676</ele>
        <time>2018-04-07T10:02:09Z</time>
      </trkpt>
      <trkpt lat="43.83455" lon="3.303">
        <ele>676</ele>
        <time>2018-04-07T10:02:17Z</time>
      </trkpt>
      <trkpt lat="43.83468" lon="3.30303">
        <ele>672</ele>
        <time>2018-04-07T10:03:08Z</time>
      </trkpt>
      <trkpt lat="43.83477" lon="3.30332">
        <ele>668</ele>
        <time>2018-04-07T10:03:24Z</time>
      </trkpt>
      <trkpt lat="43.83473" lon="3.30365">
        <ele>667</ele>
        <time>2018-04-07T10:03:33Z</time>
      </trkpt>
      <trkpt lat="43.83482" lon="3.30398">
        <ele>667</ele>
        <time>2018-04-07T10:03:39Z</time>
      </trkpt>
      <trkpt lat="43.83478" lon="3.30432">
        <ele>669</ele>
        <time>2018-04-07T10:03:44Z</time>
      </trkpt>
      <trkpt lat="43.83498" lon="3.30503">
        <ele>671</ele>
        <time>2018-04-07T10:03:49Z</time>
      </trkpt>
      <trkpt lat="43.83523" lon="3.30608">
        <ele>673</ele>
        <time>2018-04-07T10:03:56Z</time>
      </trkpt>
      <trkpt lat="43.83528" lon="3.30678">
        <ele>671</ele>
        <time>2018-04-07T10:04:00Z</time>
      </trkpt>
      <trkpt lat="43.83532" lon="3.3071">
        <ele>669</ele>
        <time>2018-04-07T10:04:03Z</time>
      </trkpt>
      <trkpt lat="43.83512" lon="3.30728">
        <ele>666</ele>
        <time>2018-04-07T10:04:15Z</time>
      </trkpt>
      <trkpt lat="43.83488" lon="3.30738">
        <ele>662</ele>
        <time>2018-04-07T10:04:18Z</time>
      </trkpt>
      <trkpt lat="43.83466" lon="3.30753">
        <ele>659</ele>
        <time>2018-04-07T10:04:24Z</time>
      </trkpt>
      <trkpt lat="43.83442" lon="3.30765">
        <ele>660</ele>
        <time>2018-04-07T10:04:29Z</time>
      </trkpt>
      <trkpt lat="43.83398" lon="3.30794">
        <ele>663</ele>
        <time>2018-04-07T10:04:36Z</time>
      </trkpt>
      <trkpt lat="43.83367" lon="3.30813">
        <ele>659</ele>
        <time>2018-04-07T10:04:38Z</time>
      </trkpt>
      <trkpt lat="43.83337" lon="3.30825">
        <ele>654</ele>
        <time>2018-04-07T10:04:41Z</time>
      </trkpt>
      <trkpt lat="43.8331" lon="3.30828">
        <ele>652</ele>
        <time>2018-04-07T10:04:44Z</time>
      </trkpt>
      <trkpt lat="43.83289" lon="3.30816">
        <ele>649</ele>
        <time>2018-04-07T10:04:52Z</time>
      </trkpt>
      <trkpt lat="43.83244" lon="3.30798">
        <ele>642</ele>
        <time>2018-04-07T10:05:12Z</time>
      </trkpt>
      <trkpt lat="43.83221" lon="3.30779">
        <ele>640</ele>
        <time>2018-04-07T10:05:15Z</time>
      </trkpt>
      <trkpt lat="43.8321" lon="3.30751">
        <ele>638</ele>
        <time>2018-04-07T10:05:19Z</time>
      </trkpt>
      <trkpt lat="43.83167" lon="3.30725">
        <ele>635</ele>
        <time>2018-04-07T10:05:32Z</time>
      </trkpt>
      <trkpt lat="43.8312" lon="3.30729">
        <ele>632</ele>
        <time>2018-04-07T10:06:20Z</time>
      </trkpt>
      <trkpt lat="43.83098" lon="3.30724">
        <ele>632</ele>
        <time>2018-04-07T10:06:29Z</time>
      </trkpt>
      <trkpt lat="43.83129" lon="3.30737">
        <ele>618</ele>
        <time>2018-04-07T10:20:33Z</time>
      </trkpt>
      <trkpt lat="43.83151" lon="3.30731">
        <ele>618</ele>
        <time>2018-04-07T10:20:41Z</time>
      </trkpt>
      <trkpt lat="43.83176" lon="3.30732">
        <ele>619</ele>
        <time>2018-04-07T10:20:50Z</time>
      </trkpt>
      <trkpt lat="43.83197" lon="3.3075">
        <ele>620</ele>
        <time>2018-04-07T10:21:00Z</time>
      </trkpt>
      <trkpt lat="43.83216" lon="3.30769">
        <ele>621</ele>
        <time>2018-04-07T10:21:08Z</time>
      </trkpt>
      <trkpt lat="43.83246" lon="3.30819">
        <ele>623</ele>
        <time>2018-04-07T10:21:26Z</time>
      </trkpt>
      <trkpt lat="43.83267" lon="3.30833">
        <ele>622</ele>
        <time>2018-04-07T10:21:43Z</time>
      </trkpt>
      <trkpt lat="43.83259" lon="3.30863">
        <ele>623</ele>
        <time>2018-04-07T10:22:00Z</time>
      </trkpt>
      <trkpt lat="43.83259" lon="3.30897">
        <ele>625</ele>
        <time>2018-04-07T10:22:10Z</time>
      </trkpt>
      <trkpt lat="43.83274" lon="3.30921">
        <ele>625</ele>
        <time>2018-04-07T10:22:17Z</time>
      </trkpt>
      <trkpt lat="43.83285" lon="3.30952">
        <ele>628</ele>
        <time>2018-04-07T10:22:28Z</time>
      </trkpt>
      <trkpt lat="43.8336" lon="3.31034">
        <ele>636</ele>
        <time>2018-04-07T10:22:56Z</time>
      </trkpt>
      <trkpt lat="43.8338" lon="3.31053">
        <ele>636</ele>
        <time>2018-04-07T10:23:00Z</time>
      </trkpt>
      <trkpt lat="43.8343" lon="3.31062">
        <ele>635</ele>
        <time>2018-04-07T10:23:12Z</time>
      </trkpt>
      <trkpt lat="43.83449" lon="3.31083">
        <ele>634</ele>
        <time>2018-04-07T10:23:23Z</time>
      </trkpt>
      <trkpt lat="43.83461" lon="3.3111">
        <ele>634</ele>
        <time>2018-04-07T10:23:31Z</time>
      </trkpt>
      <trkpt lat="43.83466" lon="3.31141">
        <ele>636</ele>
        <time>2018-04-07T10:23:41Z</time>
      </trkpt>
      <trkpt lat="43.83495" lon="3.31234">
        <ele>639</ele>
        <time>2018-04-07T10:24:06Z</time>
      </trkpt>
      <trkpt lat="43.8355" lon="3.31301">
        <ele>642</ele>
        <time>2018-04-07T10:24:29Z</time>
      </trkpt>
      <trkpt lat="43.8356" lon="3.31331">
        <ele>643</ele>
        <time>2018-04-07T10:24:39Z</time>
      </trkpt>
      <trkpt lat="43.83587" lon="3.3138">
        <ele>650</ele>
        <time>2018-04-07T10:25:01Z</time>
      </trkpt>
      <trkpt lat="43.83601" lon="3.31407">
        <ele>651</ele>
        <time>2018-04-07T10:25:11Z</time>
      </trkpt>
      <trkpt lat="43.83612" lon="3.31436">
        <ele>651</ele>
        <time>2018-04-07T10:25:32Z</time>
      </trkpt>
      <trkpt lat="43.83608" lon="3.31449">
        <ele>651</ele>
        <time>2018-04-07T10:26:04Z</time>
      </trkpt>
      <trkpt lat="43.83611" lon="3.31544">
        <ele>653</ele>
        <time>2018-04-07T10:26:40Z</time>
      </trkpt>
      <trkpt lat="43.83618" lon="3.31608">
        <ele>655</ele>
        <time>2018-04-07T10:27:02Z</time>
      </trkpt>
      <trkpt lat="43.83622" lon="3.31641">
        <ele>656</ele>
        <time>2018-04-07T10:27:13Z</time>
      </trkpt>
      <trkpt lat="43.83704" lon="3.31711">
        <ele>661</ele>
        <time>2018-04-07T10:27:51Z</time>
      </trkpt>
      <trkpt lat="43.83721" lon="3.31734">
        <ele>663</ele>
        <time>2018-04-07T10:27:59Z</time>
      </trkpt>
      <trkpt lat="43.83741" lon="3.3175">
        <ele>665</ele>
        <time>2018-04-07T10:28:07Z</time>
      </trkpt>
      <trkpt lat="43.83764" lon="3.31742">
        <ele>667</ele>
        <time>2018-04-07T10:28:16Z</time>
      </trkpt>
      <trkpt lat="43.83787" lon="3.31734">
        <ele>669</ele>
        <time>2018-04-07T10:28:24Z</time>
      </trkpt>
      <trkpt lat="43.83836" lon="3.31742">
        <ele>672</ele>
        <time>2018-04-07T10:28:37Z</time>
      </trkpt>
      <trkpt lat="43.83853" lon="3.31765">
        <ele>672</ele>
        <time>2018-04-07T10:28:43Z</time>
      </trkpt>
      <trkpt lat="43.8386" lon="3.31796">
        <ele>673</ele>
        <time>2018-04-07T10:28:48Z</time>
      </trkpt>
      <trkpt lat="43.83881" lon="3.31817">
        <ele>674</ele>
        <time>2018-04-07T10:28:54Z</time>
      </trkpt>
      <trkpt lat="43.83895" lon="3.31844">
        <ele>674</ele>
        <time>2018-04-07T10:29:00Z</time>
      </trkpt>
      <trkpt lat="43.83878" lon="3.3187">
        <ele>676</ele>
        <time>2018-04-07T10:29:05Z</time>
      </trkpt>
      <trkpt lat="43.83869" lon="3.319">
        <ele>678</ele>
        <time>2018-04-07T10:29:10Z</time>
      </trkpt>
      <trkpt lat="43.83882" lon="3.31931">
        <ele>678</ele>
        <time>2018-04-07T10:29:14Z</time>
      </trkpt>
      <trkpt lat="43.83899" lon="3.3196">
        <ele>678</ele>
        <time>2018-04-07T10:29:19Z</time>
      </trkpt>
      <trkpt lat="43.83907" lon="3.31992">
        <ele>677</ele>
        <time>2018-04-07T10:29:25Z</time>
      </trkpt>
      <trkpt lat="43.8392" lon="3.32022">
        <ele>678</ele>
        <time>2018-04-07T10:29:31Z</time>
      </trkpt>
      <trkpt lat="43.83953" lon="3.32072">
        <ele>680</ele>
        <time>2018-04-07T10:29:46Z</time>
      </trkpt>
      <trkpt lat="43.83975" lon="3.3209">
        <ele>680</ele>
        <time>2018-04-07T10:29:52Z</time>
      </trkpt>
      <trkpt lat="43.83995" lon="3.32117">
        <ele>680</ele>
        <time>2018-04-07T10:29:58Z</time>
      </trkpt>
      <trkpt lat="43.84004" lon="3.32151">
        <ele>681</ele>
        <time>2018-04-07T10:30:04Z</time>
      </trkpt>
      <trkpt lat="43.84022" lon="3.3217">
        <ele>681</ele>
        <time>2018-04-07T10:30:10Z</time>
      </trkpt>
      <trkpt lat="43.8407" lon="3.32197">
        <ele>682</ele>
        <time>2018-04-07T10:30:21Z</time>
      </trkpt>
      <trkpt lat="43.8409" lon="3.32215">
        <ele>683</ele>
        <time>2018-04-07T10:30:27Z</time>
      </trkpt>
      <trkpt lat="43.84097" lon="3.32249">
        <ele>683</ele>
        <time>2018-04-07T10:30:34Z</time>
      </trkpt>
      <trkpt lat="43.84109" lon="3.32276">
        <ele>682</ele>
        <time>2018-04-07T10:30:42Z</time>
      </trkpt>
      <trkpt lat="43.84118" lon="3.32305">
        <ele>684</ele>
        <time>2018-04-07T10:30:50Z</time>
      </trkpt>
      <trkpt lat="43.84167" lon="3.32378">
        <ele>686</ele>
        <time>2018-04-07T10:31:12Z</time>
      </trkpt>
      <trkpt lat="43.84212" lon="3.32402">
        <ele>689</ele>
        <time>2018-04-07T10:31:25Z</time>
      </trkpt>
      <trkpt lat="43.84229" lon="3.32423">
        <ele>691</ele>
        <time>2018-04-07T10:31:32Z</time>
      </trkpt>
      <trkpt lat="43.8424" lon="3.32454">
        <ele>692</ele>
        <time>2018-04-07T10:31:40Z</time>
      </trkpt>
      <trkpt lat="43.84257" lon="3.32475">
        <ele>691</ele>
        <time>2018-04-07T10:31:48Z</time>
      </trkpt>
      <trkpt lat="43.84282" lon="3.32479">
        <ele>692</ele>
        <time>2018-04-07T10:31:58Z</time>
      </trkpt>
      <trkpt lat="43.84301" lon="3.32498">
        <ele>693</ele>
        <time>2018-04-07T10:32:06Z</time>
      </trkpt>
      <trkpt lat="43.84313" lon="3.32525">
        <ele>694</ele>
        <time>2018-04-07T10:32:13Z</time>
      </trkpt>
      <trkpt lat="43.84351" lon="3.32685">
        <ele>695</ele>
        <time>2018-04-07T10:32:48Z</time>
      </trkpt>
      <trkpt lat="43.84389" lon="3.32847">
        <ele>697</ele>
        <time>2018-04-07T10:33:23Z</time>
      </trkpt>
      <trkpt lat="43.84415" lon="3.32901">
        <ele>697</ele>
        <time>2018-04-07T10:33:36Z</time>
      </trkpt>
      <trkpt lat="43.84428" lon="3.33001">
        <ele>702</ele>
        <time>2018-04-07T10:33:57Z</time>
      </trkpt>
      <trkpt lat="43.84441" lon="3.33031">
        <ele>703</ele>
        <time>2018-04-07T10:34:05Z</time>
      </trkpt>
      <trkpt lat="43.84442" lon="3.33062">
        <ele>705</ele>
        <time>2018-04-07T10:34:12Z</time>
      </trkpt>
      <trkpt lat="43.8449" lon="3.33216">
        <ele>711</ele>
        <time>2018-04-07T10:34:45Z</time>
      </trkpt>
      <trkpt lat="43.84537" lon="3.33332">
        <ele>715</ele>
        <time>2018-04-07T10:35:16Z</time>
      </trkpt>
      <trkpt lat="43.84544" lon="3.33435">
        <ele>717</ele>
        <time>2018-04-07T10:35:40Z</time>
      </trkpt>
      <trkpt lat="43.84576" lon="3.33521">
        <ele>719</ele>
        <time>2018-04-07T10:36:03Z</time>
      </trkpt>
      <trkpt lat="43.84581" lon="3.33588">
        <ele>716</ele>
        <time>2018-04-07T10:36:19Z</time>
      </trkpt>
      <trkpt lat="43.84577" lon="3.33621">
        <ele>716</ele>
        <time>2018-04-07T10:36:26Z</time>
      </trkpt>
      <trkpt lat="43.84581" lon="3.33655">
        <ele>716</ele>
        <time>2018-04-07T10:36:35Z</time>
      </trkpt>
      <trkpt lat="43.84621" lon="3.33771">
        <ele>721</ele>
        <time>2018-04-07T10:37:08Z</time>
      </trkpt>
      <trkpt lat="43.8462" lon="3.33805">
        <ele>722</ele>
        <time>2018-04-07T10:37:18Z</time>
      </trkpt>
      <trkpt lat="43.8448" lon="3.33857">
        <ele>727</ele>
        <time>2018-04-07T10:37:54Z</time>
      </trkpt>
      <trkpt lat="43.84458" lon="3.33865">
        <ele>728</ele>
        <time>2018-04-07T10:38:04Z</time>
      </trkpt>
      <trkpt lat="43.84384" lon="3.33862">
        <ele>738</ele>
        <time>2018-04-07T10:38:30Z</time>
      </trkpt>
      <trkpt lat="43.8436" lon="3.33858">
        <ele>740</ele>
        <time>2018-04-07T10:38:39Z</time>
      </trkpt>
      <trkpt lat="43.84338" lon="3.33845">
        <ele>741</ele>
        <time>2018-04-07T10:38:48Z</time>
      </trkpt>
      <trkpt lat="43.84258" lon="3.33775">
        <ele>740</ele>
        <time>2018-04-07T10:39:19Z</time>
      </trkpt>
      <trkpt lat="43.84208" lon="3.33646">
        <ele>742</ele>
        <time>2018-04-07T10:39:43Z</time>
      </trkpt>
      <trkpt lat="43.84169" lon="3.33603">
        <ele>742</ele>
        <time>2018-04-07T10:39:51Z</time>
      </trkpt>
      <trkpt lat="43.8415" lon="3.33584">
        <ele>742</ele>
        <time>2018-04-07T10:39:56Z</time>
      </trkpt>
      <trkpt lat="43.84135" lon="3.33558">
        <ele>743</ele>
        <time>2018-04-07T10:40:01Z</time>
      </trkpt>
      <trkpt lat="43.84077" lon="3.33501">
        <ele>745</ele>
        <time>2018-04-07T10:40:18Z</time>
      </trkpt>
      <trkpt lat="43.84053" lon="3.33486">
        <ele>745</ele>
        <time>2018-04-07T10:40:24Z</time>
      </trkpt>
      <trkpt lat="43.84" lon="3.33478">
        <ele>746</ele>
        <time>2018-04-07T10:40:36Z</time>
      </trkpt>
      <trkpt lat="43.83976" lon="3.33471">
        <ele>746</ele>
        <time>2018-04-07T10:40:41Z</time>
      </trkpt>
      <trkpt lat="43.83958" lon="3.33444">
        <ele>745</ele>
        <time>2018-04-07T10:40:47Z</time>
      </trkpt>
      <trkpt lat="43.83942" lon="3.33384">
        <ele>747</ele>
        <time>2018-04-07T10:41:02Z</time>
      </trkpt>
      <trkpt lat="43.83932" lon="3.33354">
        <ele>749</ele>
        <time>2018-04-07T10:41:09Z</time>
      </trkpt>
      <trkpt lat="43.83919" lon="3.33325">
        <ele>751</ele>
        <time>2018-04-07T10:41:16Z</time>
      </trkpt>
      <trkpt lat="43.83894" lon="3.33315">
        <ele>752</ele>
        <time>2018-04-07T10:41:23Z</time>
      </trkpt>
      <trkpt lat="43.83845" lon="3.33322">
        <ele>754</ele>
        <time>2018-04-07T10:41:37Z</time>
      </trkpt>
      <trkpt lat="43.83749" lon="3.33333">
        <ele>757</ele>
        <time>2018-04-07T10:42:10Z</time>
      </trkpt>
      <trkpt lat="43.83723" lon="3.33326">
        <ele>758</ele>
        <time>2018-04-07T10:42:17Z</time>
      </trkpt>
      <trkpt lat="43.83675" lon="3.33252">
        <ele>758</ele>
        <time>2018-04-07T10:42:38Z</time>
      </trkpt>
      <trkpt lat="43.83653" lon="3.33241">
        <ele>758</ele>
        <time>2018-04-07T10:42:46Z</time>
      </trkpt>
      <trkpt lat="43.83629" lon="3.33246">
        <ele>758</ele>
        <time>2018-04-07T10:42:54Z</time>
      </trkpt>
      <trkpt lat="43.8361" lon="3.33268">
        <ele>760</ele>
        <time>2018-04-07T10:43:02Z</time>
      </trkpt>
      <trkpt lat="43.83587" lon="3.33326">
        <ele>761</ele>
        <time>2018-04-07T10:43:20Z</time>
      </trkpt>
      <trkpt lat="43.8357" lon="3.33349">
        <ele>762</ele>
        <time>2018-04-07T10:43:27Z</time>
      </trkpt>
      <trkpt lat="43.83549" lon="3.33364">
        <ele>764</ele>
        <time>2018-04-07T10:43:39Z</time>
      </trkpt>
      <trkpt lat="43.83533" lon="3.33381">
        <ele>764</ele>
        <time>2018-04-07T10:44:31Z</time>
      </trkpt>
      <trkpt lat="43.83438" lon="3.33372">
        <ele>768</ele>
        <time>2018-04-07T10:45:05Z</time>
      </trkpt>
      <trkpt lat="43.83415" lon="3.33376">
        <ele>768</ele>
        <time>2018-04-07T10:45:10Z</time>
      </trkpt>
      <trkpt lat="43.83393" lon="3.33373">
        <ele>768</ele>
        <time>2018-04-07T10:45:17Z</time>
      </trkpt>
      <trkpt lat="43.83369" lon="3.3338">
        <ele>769</ele>
        <time>2018-04-07T10:45:25Z</time>
      </trkpt>
      <trkpt lat="43.83323" lon="3.33359">
        <ele>768</ele>
        <time>2018-04-07T10:45:40Z</time>
      </trkpt>
      <trkpt lat="43.833" lon="3.3335">
        <ele>769</ele>
        <time>2018-04-07T10:45:49Z</time>
      </trkpt>
      <trkpt lat="43.83255" lon="3.33371">
        <ele>772</ele>
        <time>2018-04-07T10:46:05Z</time>
      </trkpt>
      <trkpt lat="43.83125" lon="3.33497">
        <ele>770</ele>
        <time>2018-04-07T10:46:34Z</time>
      </trkpt>
      <trkpt lat="43.83058" lon="3.33679">
        <ele>766</ele>
        <time>2018-04-07T10:46:56Z</time>
      </trkpt>
      <trkpt lat="43.82999" lon="3.33756">
        <ele>763</ele>
        <time>2018-04-07T10:47:05Z</time>
      </trkpt>
      <trkpt lat="43.82979" lon="3.33735">
        <ele>763</ele>
        <time>2018-04-07T10:47:08Z</time>
      </trkpt>
      <trkpt lat="43.82874" lon="3.33761">
        <ele>754</ele>
        <time>2018-04-07T10:47:22Z</time>
      </trkpt>
      <trkpt lat="43.82821" lon="3.33786">
        <ele>749</ele>
        <time>2018-04-07T10:47:30Z</time>
      </trkpt>
      <trkpt lat="43.82794" lon="3.33788">
        <ele>747</ele>
        <time>2018-04-07T10:47:33Z</time>
      </trkpt>
      <trkpt lat="43.82713" lon="3.33756">
        <ele>742</ele>
        <time>2018-04-07T10:47:42Z</time>
      </trkpt>
      <trkpt lat="43.82578" lon="3.33672">
        <ele>733</ele>
        <time>2018-04-07T10:48:10Z</time>
      </trkpt>
      <trkpt lat="43.82527" lon="3.33669">
        <ele>730</ele>
        <time>2018-04-07T10:48:20Z</time>
      </trkpt>
      <trkpt lat="43.82477" lon="3.33685">
        <ele>728</ele>
        <time>2018-04-07T10:48:29Z</time>
      </trkpt>
      <trkpt lat="43.82452" lon="3.33697">
        <ele>727</ele>
        <time>2018-04-07T10:48:33Z</time>
      </trkpt>
      <trkpt lat="43.82396" lon="3.33762">
        <ele>726</ele>
        <time>2018-04-07T10:48:53Z</time>
      </trkpt>
      <trkpt lat="43.82376" lon="3.33778">
        <ele>727</ele>
        <time>2018-04-07T10:49:02Z</time>
      </trkpt>
      <trkpt lat="43.82328" lon="3.33795">
        <ele>733</ele>
        <time>2018-04-07T10:49:21Z</time>
      </trkpt>
      <trkpt lat="43.82304" lon="3.33808">
        <ele>735</ele>
        <time>2018-04-07T10:49:28Z</time>
      </trkpt>
      <trkpt lat="43.82216" lon="3.33853">
        <ele>737</ele>
        <time>2018-04-07T10:50:06Z</time>
      </trkpt>
      <trkpt lat="43.82171" lon="3.33863">
        <ele>740</ele>
        <time>2018-04-07T10:50:27Z</time>
      </trkpt>
      <trkpt lat="43.82125" lon="3.33864">
        <ele>739</ele>
        <time>2018-04-07T10:50:49Z</time>
      </trkpt>
      <trkpt lat="43.82108" lon="3.33886">
        <ele>739</ele>
        <time>2018-04-07T10:51:02Z</time>
      </trkpt>
      <trkpt lat="43.82117" lon="3.33918">
        <ele>738</ele>
        <time>2018-04-07T10:51:11Z</time>
      </trkpt>
      <trkpt lat="43.82115" lon="3.33951">
        <ele>738</ele>
        <time>2018-04-07T10:51:17Z</time>
      </trkpt>
      <trkpt lat="43.82104" lon="3.33983">
        <ele>738</ele>
        <time>2018-04-07T10:51:22Z</time>
      </trkpt>
      <trkpt lat="43.82097" lon="3.34088">
        <ele>737</ele>
        <time>2018-04-07T10:51:40Z</time>
      </trkpt>
      <trkpt lat="43.82088" lon="3.34116">
        <ele>738</ele>
        <time>2018-04-07T10:51:51Z</time>
      </trkpt>
      <trkpt lat="43.8209" lon="3.34105">
        <ele>736</ele>
        <time>2018-04-07T10:54:23Z</time>
      </trkpt>
      <trkpt lat="43.82066" lon="3.34106">
        <ele>736</ele>
        <time>2018-04-07T10:55:04Z</time>
      </trkpt>
      <trkpt lat="43.82021" lon="3.34087">
        <ele>735</ele>
        <time>2018-04-07T10:55:28Z</time>
      </trkpt>
      <trkpt lat="43.81951" lon="3.3407">
        <ele>738</ele>
        <time>2018-04-07T10:56:07Z</time>
      </trkpt>
      <trkpt lat="43.81906" lon="3.34082">
        <ele>741</ele>
        <time>2018-04-07T10:56:34Z</time>
      </trkpt>
      <trkpt lat="43.81886" lon="3.34065">
        <ele>742</ele>
        <time>2018-04-07T10:56:48Z</time>
      </trkpt>
      <trkpt lat="43.81863" lon="3.34058">
        <ele>746</ele>
        <time>2018-04-07T10:57:03Z</time>
      </trkpt>
      <trkpt lat="43.8184" lon="3.34064">
        <ele>748</ele>
        <time>2018-04-07T10:57:16Z</time>
      </trkpt>
      <trkpt lat="43.81821" lon="3.34082">
        <ele>750</ele>
        <time>2018-04-07T10:57:30Z</time>
      </trkpt>
      <trkpt lat="43.81775" lon="3.3409">
        <ele>753</ele>
        <time>2018-04-07T10:58:01Z</time>
      </trkpt>
      <trkpt lat="43.81753" lon="3.34097">
        <ele>756</ele>
        <time>2018-04-07T10:58:14Z</time>
      </trkpt>
      <trkpt lat="43.8173" lon="3.341">
        <ele>758</ele>
        <time>2018-04-07T10:58:27Z</time>
      </trkpt>
      <trkpt lat="43.81706" lon="3.34099">
        <ele>759</ele>
        <time>2018-04-07T10:58:40Z</time>
      </trkpt>
      <trkpt lat="43.81682" lon="3.34044">
        <ele>761</ele>
        <time>2018-04-07T10:58:56Z</time>
      </trkpt>
      <trkpt lat="43.81668" lon="3.34018">
        <ele>762</ele>
        <time>2018-04-07T10:59:04Z</time>
      </trkpt>
      <trkpt lat="43.81648" lon="3.33998">
        <ele>762</ele>
        <time>2018-04-07T10:59:12Z</time>
      </trkpt>
      <trkpt lat="43.81624" lon="3.33996">
        <ele>762</ele>
        <time>2018-04-07T10:59:23Z</time>
      </trkpt>
      <trkpt lat="43.81602" lon="3.33991">
        <ele>761</ele>
        <time>2018-04-07T10:59:36Z</time>
      </trkpt>
      <trkpt lat="43.8159" lon="3.34017">
        <ele>762</ele>
        <time>2018-04-07T10:59:49Z</time>
      </trkpt>
      <trkpt lat="43.81582" lon="3.34047">
        <ele>762</ele>
        <time>2018-04-07T11:00:00Z</time>
      </trkpt>
      <trkpt lat="43.81574" lon="3.34078">
        <ele>764</ele>
        <time>2018-04-07T11:00:09Z</time>
      </trkpt>
      <trkpt lat="43.81561" lon="3.34108">
        <ele>766</ele>
        <time>2018-04-07T11:00:19Z</time>
      </trkpt>
      <trkpt lat="43.81544" lon="3.34129">
        <ele>767</ele>
        <time>2018-04-07T11:00:27Z</time>
      </trkpt>
      <trkpt lat="43.81519" lon="3.34136">
        <ele>768</ele>
        <time>2018-04-07T11:00:36Z</time>
      </trkpt>
      <trkpt lat="43.81499" lon="3.3415">
        <ele>768</ele>
        <time>2018-04-07T11:00:46Z</time>
      </trkpt>
      <trkpt lat="43.81483" lon="3.34175">
        <ele>768</ele>
        <time>2018-04-07T11:00:54Z</time>
      </trkpt>
      <trkpt lat="43.81473" lon="3.34203">
        <ele>768</ele>
        <time>2018-04-07T11:01:14Z</time>
      </trkpt>
      <trkpt lat="43.81449" lon="3.34212">
        <ele>768</ele>
        <time>2018-04-07T11:01:25Z</time>
      </trkpt>
      <trkpt lat="43.81412" lon="3.34251">
        <ele>770</ele>
        <time>2018-04-07T11:01:41Z</time>
      </trkpt>
      <trkpt lat="43.81395" lon="3.34274">
        <ele>770</ele>
        <time>2018-04-07T11:01:50Z</time>
      </trkpt>
      <trkpt lat="43.81372" lon="3.34285">
        <ele>770</ele>
        <time>2018-04-07T11:01:59Z</time>
      </trkpt>
      <trkpt lat="43.8132" lon="3.34351">
        <ele>767</ele>
        <time>2018-04-07T11:02:27Z</time>
      </trkpt>
      <trkpt lat="43.813" lon="3.34369">
        <ele>765</ele>
        <time>2018-04-07T11:02:55Z</time>
      </trkpt>
      <trkpt lat="43.8128" lon="3.34386">
        <ele>764</ele>
        <time>2018-04-07T11:03:09Z</time>
      </trkpt>
      <trkpt lat="43.81242" lon="3.34423">
        <ele>767</ele>
        <time>2018-04-07T11:03:40Z</time>
      </trkpt>
      <trkpt lat="43.8122" lon="3.34438">
        <ele>769</ele>
        <time>2018-04-07T11:04:40Z</time>
      </trkpt>
      <trkpt lat="43.81197" lon="3.34443">
        <ele>771</ele>
        <time>2018-04-07T11:04:51Z</time>
      </trkpt>
      <trkpt lat="43.81151" lon="3.34464">
        <ele>776</ele>
        <time>2018-04-07T11:05:23Z</time>
      </trkpt>
      <trkpt lat="43.81131" lon="3.34482">
        <ele>777</ele>
        <time>2018-04-07T11:05:36Z</time>
      </trkpt>
      <trkpt lat="43.81116" lon="3.34506">
        <ele>778</ele>
        <time>2018-04-07T11:05:49Z</time>
      </trkpt>
      <trkpt lat="43.81074" lon="3.34536">
        <ele>779</ele>
        <time>2018-04-07T11:06:13Z</time>
      </trkpt>
      <trkpt lat="43.81051" lon="3.3453">
        <ele>779</ele>
        <time>2018-04-07T11:07:05Z</time>
      </trkpt>
      <trkpt lat="43.81027" lon="3.34524">
        <ele>778</ele>
        <time>2018-04-07T11:07:12Z</time>
      </trkpt>
      <trkpt lat="43.81011" lon="3.34503">
        <ele>778</ele>
        <time>2018-04-07T11:07:21Z</time>
      </trkpt>
      <trkpt lat="43.80988" lon="3.34501">
        <ele>778</ele>
        <time>2018-04-07T11:07:31Z</time>
      </trkpt>
      <trkpt lat="43.80948" lon="3.34531">
        <ele>777</ele>
        <time>2018-04-07T11:07:49Z</time>
      </trkpt>
      <trkpt lat="43.80931" lon="3.34554">
        <ele>778</ele>
        <time>2018-04-07T11:07:59Z</time>
      </trkpt>
      <trkpt lat="43.80912" lon="3.34571">
        <ele>779</ele>
        <time>2018-04-07T11:08:08Z</time>
      </trkpt>
      <trkpt lat="43.80894" lon="3.34592">
        <ele>780</ele>
        <time>2018-04-07T11:08:16Z</time>
      </trkpt>
      <trkpt lat="43.80872" lon="3.34608">
        <ele>781</ele>
        <time>2018-04-07T11:08:26Z</time>
      </trkpt>
      <trkpt lat="43.80859" lon="3.34634">
        <ele>779</ele>
        <time>2018-04-07T11:09:38Z</time>
      </trkpt>
      <trkpt lat="43.8084" lon="3.3465">
        <ele>782</ele>
        <time>2018-04-07T11:10:10Z</time>
      </trkpt>
      <trkpt lat="43.8082" lon="3.34667">
        <ele>782</ele>
        <time>2018-04-07T11:10:19Z</time>
      </trkpt>
      <trkpt lat="43.80814" lon="3.34683">
        <ele>781</ele>
        <time>2018-04-07T11:11:00Z</time>
      </trkpt>
      <trkpt lat="43.80797" lon="3.34704">
        <ele>783</ele>
        <time>2018-04-07T11:11:24Z</time>
      </trkpt>
      <trkpt lat="43.80767" lon="3.34755">
        <ele>780</ele>
        <time>2018-04-07T11:11:47Z</time>
      </trkpt>
      <trkpt lat="43.80746" lon="3.34771">
        <ele>775</ele>
        <time>2018-04-07T11:12:02Z</time>
      </trkpt>
      <trkpt lat="43.80724" lon="3.34779">
        <ele>769</ele>
        <time>2018-04-07T11:12:50Z</time>
      </trkpt>
      <trkpt lat="43.80703" lon="3.34791">
        <ele>767</ele>
        <time>2018-04-07T11:12:59Z</time>
      </trkpt>
      <trkpt lat="43.80681" lon="3.3478">
        <ele>766</ele>
        <time>2018-04-07T11:13:47Z</time>
      </trkpt>
      <trkpt lat="43.80657" lon="3.34778">
        <ele>762</ele>
        <time>2018-04-07T11:14:45Z</time>
      </trkpt>
      <trkpt lat="43.80634" lon="3.34784">
        <ele>758</ele>
        <time>2018-04-07T11:14:55Z</time>
      </trkpt>
      <trkpt lat="43.80604" lon="3.34838">
        <ele>753</ele>
        <time>2018-04-07T11:15:22Z</time>
      </trkpt>
      <trkpt lat="43.80596" lon="3.34867">
        <ele>751</ele>
        <time>2018-04-07T11:15:30Z</time>
      </trkpt>
      <trkpt lat="43.80598" lon="3.34899">
        <ele>749</ele>
        <time>2018-04-07T11:15:40Z</time>
      </trkpt>
      <trkpt lat="43.80655" lon="3.3496">
        <ele>743</ele>
        <time>2018-04-07T11:16:09Z</time>
      </trkpt>
      <trkpt lat="43.80675" lon="3.34976">
        <ele>742</ele>
        <time>2018-04-07T11:16:18Z</time>
      </trkpt>
      <trkpt lat="43.80658" lon="3.35001">
        <ele>739</ele>
        <time>2018-04-07T11:16:32Z</time>
      </trkpt>
      <trkpt lat="43.80633" lon="3.35004">
        <ele>736</ele>
        <time>2018-04-07T11:16:39Z</time>
      </trkpt>
      <trkpt lat="43.80594" lon="3.35047">
        <ele>731</ele>
        <time>2018-04-07T11:16:52Z</time>
      </trkpt>
      <trkpt lat="43.80584" lon="3.35081">
        <ele>730</ele>
        <time>2018-04-07T11:16:56Z</time>
      </trkpt>
      <trkpt lat="43.80571" lon="3.35109">
        <ele>728</ele>
        <time>2018-04-07T11:17:01Z</time>
      </trkpt>
      <trkpt lat="43.8056" lon="3.35138">
        <ele>726</ele>
        <time>2018-04-07T11:17:05Z</time>
      </trkpt>
      <trkpt lat="43.80552" lon="3.35169">
        <ele>724</ele>
        <time>2018-04-07T11:17:10Z</time>
      </trkpt>
      <trkpt lat="43.8053" lon="3.35179">
        <ele>722</ele>
        <time>2018-04-07T11:17:16Z</time>
      </trkpt>
      <trkpt lat="43.80511" lon="3.3516">
        <ele>720</ele>
        <time>2018-04-07T11:17:23Z</time>
      </trkpt>
      <trkpt lat="43.80488" lon="3.35151">
        <ele>720</ele>
        <time>2018-04-07T11:17:29Z</time>
      </trkpt>
      <trkpt lat="43.8044" lon="3.35167">
        <ele>718</ele>
        <time>2018-04-07T11:17:44Z</time>
      </trkpt>
      <trkpt lat="43.80422" lon="3.3519">
        <ele>718</ele>
        <time>2018-04-07T11:17:53Z</time>
      </trkpt>
      <trkpt lat="43.80398" lon="3.352">
        <ele>718</ele>
        <time>2018-04-07T11:18:03Z</time>
      </trkpt>
      <trkpt lat="43.80307" lon="3.35157">
        <ele>718</ele>
        <time>2018-04-07T11:18:35Z</time>
      </trkpt>
      <trkpt lat="43.80284" lon="3.3515">
        <ele>717</ele>
        <time>2018-04-07T11:18:45Z</time>
      </trkpt>
      <trkpt lat="43.80263" lon="3.35166">
        <ele>716</ele>
        <time>2018-04-07T11:18:55Z</time>
      </trkpt>
      <trkpt lat="43.80215" lon="3.35168">
        <ele>714</ele>
        <time>2018-04-07T11:19:13Z</time>
      </trkpt>
      <trkpt lat="43.80197" lon="3.35148">
        <ele>711</ele>
        <time>2018-04-07T11:19:21Z</time>
      </trkpt>
      <trkpt lat="43.8018" lon="3.35124">
        <ele>706</ele>
        <time>2018-04-07T11:19:34Z</time>
      </trkpt>
      <trkpt lat="43.80173" lon="3.35093">
        <ele>704</ele>
        <time>2018-04-07T11:19:41Z</time>
      </trkpt>
      <trkpt lat="43.80165" lon="3.35063">
        <ele>704</ele>
        <time>2018-04-07T11:19:48Z</time>
      </trkpt>
      <trkpt lat="43.80145" lon="3.3504">
        <ele>704</ele>
        <time>2018-04-07T11:19:55Z</time>
      </trkpt>
      <trkpt lat="43.80123" lon="3.35029">
        <ele>704</ele>
        <time>2018-04-07T11:20:00Z</time>
      </trkpt>
      <trkpt lat="43.80099" lon="3.35024">
        <ele>703</ele>
        <time>2018-04-07T11:20:07Z</time>
      </trkpt>
      <trkpt lat="43.80077" lon="3.35038">
        <ele>702</ele>
        <time>2018-04-07T11:20:14Z</time>
      </trkpt>
      <trkpt lat="43.80052" lon="3.35035">
        <ele>701</ele>
        <time>2018-04-07T11:20:20Z</time>
      </trkpt>
      <trkpt lat="43.79988" lon="3.34993">
        <ele>700</ele>
        <time>2018-04-07T11:20:41Z</time>
      </trkpt>
      <trkpt lat="43.79965" lon="3.34983">
        <ele>699</ele>
        <time>2018-04-07T11:21:22Z</time>
      </trkpt>
      <trkpt lat="43.79917" lon="3.34973">
        <ele>697</ele>
        <time>2018-04-07T11:21:34Z</time>
      </trkpt>
      <trkpt lat="43.79868" lon="3.34991">
        <ele>698</ele>
        <time>2018-04-07T11:21:48Z</time>
      </trkpt>
      <trkpt lat="43.79845" lon="3.35003">
        <ele>699</ele>
        <time>2018-04-07T11:21:58Z</time>
      </trkpt>
      <trkpt lat="43.79821" lon="3.35009">
        <ele>699</ele>
        <time>2018-04-07T11:22:05Z</time>
      </trkpt>
      <trkpt lat="43.79774" lon="3.34993">
        <ele>698</ele>
        <time>2018-04-07T11:22:16Z</time>
      </trkpt>
      <trkpt lat="43.79765" lon="3.34963">
        <ele>696</ele>
        <time>2018-04-07T11:22:23Z</time>
      </trkpt>
      <trkpt lat="43.79744" lon="3.34942">
        <ele>694</ele>
        <time>2018-04-07T11:22:30Z</time>
      </trkpt>
      <trkpt lat="43.7972" lon="3.34931">
        <ele>694</ele>
        <time>2018-04-07T11:22:36Z</time>
      </trkpt>
      <trkpt lat="43.79599" lon="3.34908">
        <ele>695</ele>
        <time>2018-04-07T11:23:06Z</time>
      </trkpt>
      <trkpt lat="43.79552" lon="3.34902">
        <ele>695</ele>
        <time>2018-04-07T11:23:19Z</time>
      </trkpt>
      <trkpt lat="43.79505" lon="3.34918">
        <ele>694</ele>
        <time>2018-04-07T11:23:55Z</time>
      </trkpt>
      <trkpt lat="43.79514" lon="3.34884">
        <ele>695</ele>
        <time>2018-04-07T11:24:25Z</time>
      </trkpt>
      <trkpt lat="43.79515" lon="3.34779">
        <ele>696</ele>
        <time>2018-04-07T11:24:43Z</time>
      </trkpt>
      <trkpt lat="43.79487" lon="3.34724">
        <ele>698</ele>
        <time>2018-04-07T11:24:57Z</time>
      </trkpt>
      <trkpt lat="43.79482" lon="3.34659">
        <ele>697</ele>
        <time>2018-04-07T11:25:11Z</time>
      </trkpt>
      <trkpt lat="43.79465" lon="3.34636">
        <ele>696</ele>
        <time>2018-04-07T11:25:47Z</time>
      </trkpt>
      <trkpt lat="43.7947" lon="3.34603">
        <ele>694</ele>
        <time>2018-04-07T11:25:58Z</time>
      </trkpt>
      <trkpt lat="43.79488" lon="3.34545">
        <ele>692</ele>
        <time>2018-04-07T11:26:10Z</time>
      </trkpt>
      <trkpt lat="43.79484" lon="3.3447">
        <ele>689</ele>
        <time>2018-04-07T11:26:23Z</time>
      </trkpt>
      <trkpt lat="43.79446" lon="3.34387">
        <ele>686</ele>
        <time>2018-04-07T11:26:41Z</time>
      </trkpt>
      <trkpt lat="43.7943" lon="3.3436">
        <ele>687</ele>
        <time>2018-04-07T11:26:48Z</time>
      </trkpt>
      <trkpt lat="43.79406" lon="3.34345">
        <ele>687</ele>
        <time>2018-04-07T11:26:51Z</time>
      </trkpt>
      <trkpt lat="43.79402" lon="3.34309">
        <ele>687</ele>
        <time>2018-04-07T11:27:02Z</time>
      </trkpt>
      <trkpt lat="43.79376" lon="3.3429">
        <ele>687</ele>
        <time>2018-04-07T11:27:06Z</time>
      </trkpt>
      <trkpt lat="43.79327" lon="3.34261">
        <ele>687</ele>
        <time>2018-04-07T11:27:17Z</time>
      </trkpt>
      <trkpt lat="43.793" lon="3.34243">
        <ele>684</ele>
        <time>2018-04-07T11:27:20Z</time>
      </trkpt>
      <trkpt lat="43.79246" lon="3.34227">
        <ele>681</ele>
        <time>2018-04-07T11:27:25Z</time>
      </trkpt>
      <trkpt lat="43.79223" lon="3.34207">
        <ele>680</ele>
        <time>2018-04-07T11:27:28Z</time>
      </trkpt>
      <trkpt lat="43.79214" lon="3.34176">
        <ele>679</ele>
        <time>2018-04-07T11:27:32Z</time>
      </trkpt>
      <trkpt lat="43.79194" lon="3.34156">
        <ele>678</ele>
        <time>2018-04-07T11:27:40Z</time>
      </trkpt>
      <trkpt lat="43.79116" lon="3.34159">
        <ele>677</ele>
        <time>2018-04-07T11:27:56Z</time>
      </trkpt>
      <trkpt lat="43.79066" lon="3.34184">
        <ele>675</ele>
        <time>2018-04-07T11:28:02Z</time>
      </trkpt>
      <trkpt lat="43.7904" lon="3.34185">
        <ele>675</ele>
        <time>2018-04-07T11:28:09Z</time>
      </trkpt>
      <trkpt lat="43.78988" lon="3.34169">
        <ele>672</ele>
        <time>2018-04-07T11:28:19Z</time>
      </trkpt>
      <trkpt lat="43.78935" lon="3.34171">
        <ele>670</ele>
        <time>2018-04-07T11:28:25Z</time>
      </trkpt>
      <trkpt lat="43.78882" lon="3.34193">
        <ele>667</ele>
        <time>2018-04-07T11:28:33Z</time>
      </trkpt>
      <trkpt lat="43.78762" lon="3.3416">
        <ele>661</ele>
        <time>2018-04-07T11:28:49Z</time>
      </trkpt>
      <trkpt lat="43.78739" lon="3.34146">
        <ele>660</ele>
        <time>2018-04-07T11:28:55Z</time>
      </trkpt>
      <trkpt lat="43.78718" lon="3.3413">
        <ele>658</ele>
        <time>2018-04-07T11:29:00Z</time>
      </trkpt>
      <trkpt lat="43.78713" lon="3.34162">
        <ele>654</ele>
        <time>2018-04-07T11:29:09Z</time>
      </trkpt>
      <trkpt lat="43.78776" lon="3.34243">
        <ele>643</ele>
        <time>2018-04-07T11:29:19Z</time>
      </trkpt>
      <trkpt lat="43.78825" lon="3.34273">
        <ele>638</ele>
        <time>2018-04-07T11:29:26Z</time>
      </trkpt>
      <trkpt lat="43.78814" lon="3.34302">
        <ele>636</ele>
        <time>2018-04-07T11:29:34Z</time>
      </trkpt>
      <trkpt lat="43.78768" lon="3.34343">
        <ele>633</ele>
        <time>2018-04-07T11:29:42Z</time>
      </trkpt>
      <trkpt lat="43.7879" lon="3.34335">
        <ele>622</ele>
        <time>2018-04-07T11:30:59Z</time>
      </trkpt>
      <trkpt lat="43.78741" lon="3.34358">
        <ele>621</ele>
        <time>2018-04-07T11:31:35Z</time>
      </trkpt>
      <trkpt lat="43.78673" lon="3.34393">
        <ele>621</ele>
        <time>2018-04-07T11:31:57Z</time>
      </trkpt>
      <trkpt lat="43.78651" lon="3.34411">
        <ele>620</ele>
        <time>2018-04-07T11:32:04Z</time>
      </trkpt>
      <trkpt lat="43.78647" lon="3.34445">
        <ele>620</ele>
        <time>2018-04-07T11:32:11Z</time>
      </trkpt>
      <trkpt lat="43.78642" lon="3.34477">
        <ele>620</ele>
        <time>2018-04-07T11:32:19Z</time>
      </trkpt>
      <trkpt lat="43.78568" lon="3.34469">
        <ele>615</ele>
        <time>2018-04-07T11:33:26Z</time>
      </trkpt>
      <trkpt lat="43.78507" lon="3.34547">
        <ele>607</ele>
        <time>2018-04-07T11:33:35Z</time>
      </trkpt>
      <trkpt lat="43.78439" lon="3.34564">
        <ele>600</ele>
        <time>2018-04-07T11:34:02Z</time>
      </trkpt>
      <trkpt lat="43.78416" lon="3.34564">
        <ele>599</ele>
        <time>2018-04-07T11:34:17Z</time>
      </trkpt>
      <trkpt lat="43.78368" lon="3.34567">
        <ele>604</ele>
        <time>2018-04-07T11:34:46Z</time>
      </trkpt>
      <trkpt lat="43.78346" lon="3.34576">
        <ele>605</ele>
        <time>2018-04-07T11:35:01Z</time>
      </trkpt>
      <trkpt lat="43.78322" lon="3.34572">
        <ele>610</ele>
        <time>2018-04-07T11:35:14Z</time>
      </trkpt>
      <trkpt lat="43.78301" lon="3.34586">
        <ele>616</ele>
        <time>2018-04-07T11:35:30Z</time>
      </trkpt>
      <trkpt lat="43.78283" lon="3.34607">
        <ele>619</ele>
        <time>2018-04-07T11:35:40Z</time>
      </trkpt>
      <trkpt lat="43.78275" lon="3.34637">
        <ele>620</ele>
        <time>2018-04-07T11:35:48Z</time>
      </trkpt>
      <trkpt lat="43.78275" lon="3.34669">
        <ele>622</ele>
        <time>2018-04-07T11:35:57Z</time>
      </trkpt>
      <trkpt lat="43.78267" lon="3.34699">
        <ele>625</ele>
        <time>2018-04-07T11:36:07Z</time>
      </trkpt>
      <trkpt lat="43.78267" lon="3.34733">
        <ele>628</ele>
        <time>2018-04-07T11:36:24Z</time>
      </trkpt>
      <trkpt lat="43.78254" lon="3.34795">
        <ele>635</ele>
        <time>2018-04-07T11:36:42Z</time>
      </trkpt>
      <trkpt lat="43.78261" lon="3.3483">
        <ele>635</ele>
        <time>2018-04-07T11:36:51Z</time>
      </trkpt>
      <trkpt lat="43.7827" lon="3.34859">
        <ele>635</ele>
        <time>2018-04-07T11:37:03Z</time>
      </trkpt>
      <trkpt lat="43.7829" lon="3.34879">
        <ele>634</ele>
        <time>2018-04-07T11:37:13Z</time>
      </trkpt>
      <trkpt lat="43.78314" lon="3.3489">
        <ele>634</ele>
        <time>2018-04-07T11:37:22Z</time>
      </trkpt>
      <trkpt lat="43.78338" lon="3.34892">
        <ele>634</ele>
        <time>2018-04-07T11:37:32Z</time>
      </trkpt>
      <trkpt lat="43.78359" lon="3.34904">
        <ele>634</ele>
        <time>2018-04-07T11:37:42Z</time>
      </trkpt>
      <trkpt lat="43.78384" lon="3.34903">
        <ele>634</ele>
        <time>2018-04-07T11:37:54Z</time>
      </trkpt>
      <trkpt lat="43.78407" lon="3.34895">
        <ele>631</ele>
        <time>2018-04-07T11:38:04Z</time>
      </trkpt>
      <trkpt lat="43.78429" lon="3.34904">
        <ele>629</ele>
        <time>2018-04-07T11:38:17Z</time>
      </trkpt>
      <trkpt lat="43.78474" lon="3.34924">
        <ele>627</ele>
        <time>2018-04-07T11:38:40Z</time>
      </trkpt>
      <trkpt lat="43.78518" lon="3.34951">
        <ele>632</ele>
        <time>2018-04-07T11:38:59Z</time>
      </trkpt>
      <trkpt lat="43.78567" lon="3.3502">
        <ele>643</ele>
        <time>2018-04-07T11:39:32Z</time>
      </trkpt>
      <trkpt lat="43.78561" lon="3.35118">
        <ele>649</ele>
        <time>2018-04-07T11:39:57Z</time>
      </trkpt>
      <trkpt lat="43.78518" lon="3.3524">
        <ele>653</ele>
        <time>2018-04-07T11:40:26Z</time>
      </trkpt>
      <trkpt lat="43.78512" lon="3.35279">
        <ele>653</ele>
        <time>2018-04-07T11:40:31Z</time>
      </trkpt>
      <trkpt lat="43.78548" lon="3.35376">
        <ele>652</ele>
        <time>2018-04-07T11:40:42Z</time>
      </trkpt>
      <trkpt lat="43.78547" lon="3.35418">
        <ele>652</ele>
        <time>2018-04-07T11:40:46Z</time>
      </trkpt>
      <trkpt lat="43.78536" lon="3.35521">
        <ele>650</ele>
        <time>2018-04-07T11:41:16Z</time>
      </trkpt>
      <trkpt lat="43.78538" lon="3.35589">
        <ele>647</ele>
        <time>2018-04-07T11:41:26Z</time>
      </trkpt>
      <trkpt lat="43.78598" lon="3.357">
        <ele>645</ele>
        <time>2018-04-07T11:41:40Z</time>
      </trkpt>
      <trkpt lat="43.78606" lon="3.35732">
        <ele>645</ele>
        <time>2018-04-07T11:41:44Z</time>
      </trkpt>
      <trkpt lat="43.78588" lon="3.35757">
        <ele>645</ele>
        <time>2018-04-07T11:41:49Z</time>
      </trkpt>
      <trkpt lat="43.78576" lon="3.35788">
        <ele>646</ele>
        <time>2018-04-07T11:41:56Z</time>
      </trkpt>
      <trkpt lat="43.78556" lon="3.35848">
        <ele>645</ele>
        <time>2018-04-07T11:42:24Z</time>
      </trkpt>
      <trkpt lat="43.78549" lon="3.3588">
        <ele>645</ele>
        <time>2018-04-07T11:42:31Z</time>
      </trkpt>
      <trkpt lat="43.78553" lon="3.35915">
        <ele>643</ele>
        <time>2018-04-07T11:42:38Z</time>
      </trkpt>
      <trkpt lat="43.78568" lon="3.35949">
        <ele>643</ele>
        <time>2018-04-07T11:42:43Z</time>
      </trkpt>
      <trkpt lat="43.78586" lon="3.35971">
        <ele>642</ele>
        <time>2018-04-07T11:42:48Z</time>
      </trkpt>
      <trkpt lat="43.7863" lon="3.36001">
        <ele>639</ele>
        <time>2018-04-07T11:42:57Z</time>
      </trkpt>
      <trkpt lat="43.78657" lon="3.36006">
        <ele>636</ele>
        <time>2018-04-07T11:43:01Z</time>
      </trkpt>
      <trkpt lat="43.78859" lon="3.36069">
        <ele>614</ele>
        <time>2018-04-07T11:43:29Z</time>
      </trkpt>
      <trkpt lat="43.78834" lon="3.36057">
        <ele>612</ele>
        <time>2018-04-07T11:43:46Z</time>
      </trkpt>
      <trkpt lat="43.78805" lon="3.36071">
        <ele>611</ele>
        <time>2018-04-07T11:43:48Z</time>
      </trkpt>
      <trkpt lat="43.78778" lon="3.36092">
        <ele>610</ele>
        <time>2018-04-07T11:43:51Z</time>
      </trkpt>
      <trkpt lat="43.78754" lon="3.36097">
        <ele>608</ele>
        <time>2018-04-07T11:43:55Z</time>
      </trkpt>
      <trkpt lat="43.78724" lon="3.36106">
        <ele>606</ele>
        <time>2018-04-07T11:43:58Z</time>
      </trkpt>
      <trkpt lat="43.78693" lon="3.36126">
        <ele>605</ele>
        <time>2018-04-07T11:44:01Z</time>
      </trkpt>
      <trkpt lat="43.7861" lon="3.36152">
        <ele>596</ele>
        <time>2018-04-07T11:44:11Z</time>
      </trkpt>
      <trkpt lat="43.78518" lon="3.36165">
        <ele>589</ele>
        <time>2018-04-07T11:44:20Z</time>
      </trkpt>
      <trkpt lat="43.78468" lon="3.36192">
        <ele>579</ele>
        <time>2018-04-07T11:44:27Z</time>
      </trkpt>
      <trkpt lat="43.78457" lon="3.36221">
        <ele>576</ele>
        <time>2018-04-07T11:44:32Z</time>
      </trkpt>
      <trkpt lat="43.78506" lon="3.36208">
        <ele>568</ele>
        <time>2018-04-07T11:44:42Z</time>
      </trkpt>
      <trkpt lat="43.78585" lon="3.36211">
        <ele>564</ele>
        <time>2018-04-07T11:44:54Z</time>
      </trkpt>
      <trkpt lat="43.78592" lon="3.36211">
        <ele>563</ele>
        <time>2018-04-07T11:45:18Z</time>
      </trkpt>
      <trkpt lat="43.78567" lon="3.36221">
        <ele>564</ele>
        <time>2018-04-07T11:45:24Z</time>
      </trkpt>
      <trkpt lat="43.78543" lon="3.36259">
        <ele>563</ele>
        <time>2018-04-07T11:45:26Z</time>
      </trkpt>
      <trkpt lat="43.7853" lon="3.36286">
        <ele>561</ele>
        <time>2018-04-07T11:45:31Z</time>
      </trkpt>
      <trkpt lat="43.78519" lon="3.36351">
        <ele>555</ele>
        <time>2018-04-07T11:45:47Z</time>
      </trkpt>
      <trkpt lat="43.78511" lon="3.36382">
        <ele>554</ele>
        <time>2018-04-07T11:45:56Z</time>
      </trkpt>
      <trkpt lat="43.78496" lon="3.36408">
        <ele>554</ele>
        <time>2018-04-07T11:46:04Z</time>
      </trkpt>
      <trkpt lat="43.78472" lon="3.36418">
        <ele>557</ele>
        <time>2018-04-07T11:46:14Z</time>
      </trkpt>
      <trkpt lat="43.7845" lon="3.36428">
        <ele>559</ele>
        <time>2018-04-07T11:46:21Z</time>
      </trkpt>
      <trkpt lat="43.78439" lon="3.36458">
        <ele>560</ele>
        <time>2018-04-07T11:46:29Z</time>
      </trkpt>
      <trkpt lat="43.78409" lon="3.36509">
        <ele>562</ele>
        <time>2018-04-07T11:46:44Z</time>
      </trkpt>
      <trkpt lat="43.78406" lon="3.36546">
        <ele>560</ele>
        <time>2018-04-07T11:46:49Z</time>
      </trkpt>
      <trkpt lat="43.78403" lon="3.36578">
        <ele>561</ele>
        <time>2018-04-07T11:46:54Z</time>
      </trkpt>
      <trkpt lat="43.78388" lon="3.36646">
        <ele>563</ele>
        <time>2018-04-07T11:47:07Z</time>
      </trkpt>
      <trkpt lat="43.78419" lon="3.36702">
        <ele>564</ele>
        <time>2018-04-07T11:47:18Z</time>
      </trkpt>
      <trkpt lat="43.78484" lon="3.36774">
        <ele>562</ele>
        <time>2018-04-07T11:47:32Z</time>
      </trkpt>
      <trkpt lat="43.785" lon="3.36796">
        <ele>559</ele>
        <time>2018-04-07T11:47:40Z</time>
      </trkpt>
      <trkpt lat="43.78478" lon="3.36806">
        <ele>559</ele>
        <time>2018-04-07T11:47:47Z</time>
      </trkpt>
      <trkpt lat="43.78429" lon="3.36788">
        <ele>558</ele>
        <time>2018-04-07T11:47:59Z</time>
      </trkpt>
      <trkpt lat="43.78407" lon="3.36778">
        <ele>558</ele>
        <time>2018-04-07T11:48:07Z</time>
      </trkpt>
      <trkpt lat="43.78364" lon="3.36755">
        <ele>558</ele>
        <time>2018-04-07T11:48:25Z</time>
      </trkpt>
      <trkpt lat="43.7832" lon="3.3674">
        <ele>558</ele>
        <time>2018-04-07T11:48:45Z</time>
      </trkpt>
      <trkpt lat="43.78299" lon="3.36727">
        <ele>558</ele>
        <time>2018-04-07T11:49:17Z</time>
      </trkpt>
      <trkpt lat="43.78278" lon="3.36703">
        <ele>551</ele>
        <time>2018-04-07T11:50:54Z</time>
      </trkpt>
      <trkpt lat="43.78244" lon="3.36648">
        <ele>548</ele>
        <time>2018-04-07T11:51:04Z</time>
      </trkpt>
      <trkpt lat="43.78112" lon="3.3655">
        <ele>543</ele>
        <time>2018-04-07T11:51:26Z</time>
      </trkpt>
      <trkpt lat="43.77957" lon="3.36567">
        <ele>533</ele>
        <time>2018-04-07T11:51:46Z</time>
      </trkpt>
      <trkpt lat="43.77899" lon="3.36553">
        <ele>530</ele>
        <time>2018-04-07T11:51:52Z</time>
      </trkpt>
      <trkpt lat="43.77807" lon="3.36487">
        <ele>519</ele>
        <time>2018-04-07T11:52:02Z</time>
      </trkpt>
      <trkpt lat="43.778" lon="3.36454">
        <ele>515</ele>
        <time>2018-04-07T11:52:06Z</time>
      </trkpt>
      <trkpt lat="43.77759" lon="3.36407">
        <ele>507</ele>
        <time>2018-04-07T11:52:13Z</time>
      </trkpt>
      <trkpt lat="43.7774" lon="3.36379">
        <ele>503</ele>
        <time>2018-04-07T11:52:17Z</time>
      </trkpt>
      <trkpt lat="43.77727" lon="3.36306">
        <ele>496</ele>
        <time>2018-04-07T11:52:25Z</time>
      </trkpt>
      <trkpt lat="43.77713" lon="3.36281">
        <ele>492</ele>
        <time>2018-04-07T11:52:28Z</time>
      </trkpt>
      <trkpt lat="43.77672" lon="3.36236">
        <ele>486</ele>
        <time>2018-04-07T11:52:35Z</time>
      </trkpt>
      <trkpt lat="43.77478" lon="3.36214">
        <ele>467</ele>
        <time>2018-04-07T11:52:56Z</time>
      </trkpt>
      <trkpt lat="43.77456" lon="3.36203">
        <ele>466</ele>
        <time>2018-04-07T11:52:58Z</time>
      </trkpt>
      <trkpt lat="43.77432" lon="3.36202">
        <ele>463</ele>
        <time>2018-04-07T11:53:01Z</time>
      </trkpt>
      <trkpt lat="43.77408" lon="3.36209">
        <ele>461</ele>
        <time>2018-04-07T11:53:05Z</time>
      </trkpt>
      <trkpt lat="43.77436" lon="3.36204">
        <ele>459</ele>
        <time>2018-04-07T11:53:25Z</time>
      </trkpt>
      <trkpt lat="43.77462" lon="3.36208">
        <ele>458</ele>
        <time>2018-04-07T11:53:29Z</time>
      </trkpt>
      <trkpt lat="43.77506" lon="3.36179">
        <ele>456</ele>
        <time>2018-04-07T11:53:34Z</time>
      </trkpt>
      <trkpt lat="43.77556" lon="3.36162">
        <ele>451</ele>
        <time>2018-04-07T11:53:41Z</time>
      </trkpt>
      <trkpt lat="43.77627" lon="3.36157">
        <ele>443</ele>
        <time>2018-04-07T11:53:52Z</time>
      </trkpt>
      <trkpt lat="43.77652" lon="3.36141">
        <ele>438</ele>
        <time>2018-04-07T11:53:57Z</time>
      </trkpt>
      <trkpt lat="43.77642" lon="3.36099">
        <ele>433</ele>
        <time>2018-04-07T11:54:07Z</time>
      </trkpt>
      <trkpt lat="43.7762" lon="3.36072">
        <ele>430</ele>
        <time>2018-04-07T11:54:13Z</time>
      </trkpt>
      <trkpt lat="43.77601" lon="3.36052">
        <ele>427</ele>
        <time>2018-04-07T11:54:16Z</time>
      </trkpt>
      <trkpt lat="43.77548" lon="3.36027">
        <ele>417</ele>
        <time>2018-04-07T11:54:22Z</time>
      </trkpt>
      <trkpt lat="43.7751" lon="3.35983">
        <ele>410</ele>
        <time>2018-04-07T11:54:30Z</time>
      </trkpt>
      <trkpt lat="43.77483" lon="3.35974">
        <ele>407</ele>
        <time>2018-04-07T11:54:33Z</time>
      </trkpt>
      <trkpt lat="43.77408" lon="3.35931">
        <ele>400</ele>
        <time>2018-04-07T11:54:43Z</time>
      </trkpt>
      <trkpt lat="43.77296" lon="3.3585">
        <ele>380</ele>
        <time>2018-04-07T11:54:58Z</time>
      </trkpt>
      <trkpt lat="43.77173" lon="3.3558">
        <ele>352</ele>
        <time>2018-04-07T11:55:22Z</time>
      </trkpt>
      <trkpt lat="43.77156" lon="3.35554">
        <ele>349</ele>
        <time>2018-04-07T11:55:25Z</time>
      </trkpt>
      <trkpt lat="43.77106" lon="3.35534">
        <ele>344</ele>
        <time>2018-04-07T11:55:31Z</time>
      </trkpt>
      <trkpt lat="43.77097" lon="3.35503">
        <ele>339</ele>
        <time>2018-04-07T11:56:31Z</time>
      </trkpt>
      <trkpt lat="43.77089" lon="3.35473">
        <ele>335</ele>
        <time>2018-04-07T11:56:34Z</time>
      </trkpt>
      <trkpt lat="43.77082" lon="3.35437">
        <ele>333</ele>
        <time>2018-04-07T11:56:39Z</time>
      </trkpt>
      <trkpt lat="43.77079" lon="3.35398">
        <ele>332</ele>
        <time>2018-04-07T11:56:43Z</time>
      </trkpt>
      <trkpt lat="43.77078" lon="3.35365">
        <ele>329</ele>
        <time>2018-04-07T11:56:46Z</time>
      </trkpt>
      <trkpt lat="43.77094" lon="3.35335">
        <ele>327</ele>
        <time>2018-04-07T11:56:50Z</time>
      </trkpt>
      <trkpt lat="43.77104" lon="3.35267">
        <ele>324</ele>
        <time>2018-04-07T11:56:58Z</time>
      </trkpt>
      <trkpt lat="43.77086" lon="3.35247">
        <ele>322</ele>
        <time>2018-04-07T11:57:01Z</time>
      </trkpt>
      <trkpt lat="43.76998" lon="3.35244">
        <ele>316</ele>
        <time>2018-04-07T11:57:11Z</time>
      </trkpt>
      <trkpt lat="43.76932" lon="3.35314">
        <ele>310</ele>
        <time>2018-04-07T11:57:21Z</time>
      </trkpt>
      <trkpt lat="43.76907" lon="3.35333">
        <ele>308</ele>
        <time>2018-04-07T11:57:25Z</time>
      </trkpt>
      <trkpt lat="43.76883" lon="3.35333">
        <ele>306</ele>
        <time>2018-04-07T11:57:30Z</time>
      </trkpt>
      <trkpt lat="43.7687" lon="3.35272">
        <ele>302</ele>
        <time>2018-04-07T11:57:37Z</time>
      </trkpt>
      <trkpt lat="43.76887" lon="3.35165">
        <ele>296</ele>
        <time>2018-04-07T11:57:47Z</time>
      </trkpt>
      <trkpt lat="43.76881" lon="3.35127">
        <ele>294</ele>
        <time>2018-04-07T11:57:50Z</time>
      </trkpt>
      <trkpt lat="43.76867" lon="3.35092">
        <ele>290</ele>
        <time>2018-04-07T11:57:53Z</time>
      </trkpt>
      <trkpt lat="43.76819" lon="3.3509">
        <ele>284</ele>
        <time>2018-04-07T11:57:59Z</time>
      </trkpt>
      <trkpt lat="43.76785" lon="3.35033">
        <ele>278</ele>
        <time>2018-04-07T11:58:07Z</time>
      </trkpt>
      <trkpt lat="43.76782" lon="3.35">
        <ele>275</ele>
        <time>2018-04-07T11:58:11Z</time>
      </trkpt>
      <trkpt lat="43.76757" lon="3.34997">
        <ele>272</ele>
        <time>2018-04-07T11:58:22Z</time>
      </trkpt>
      <trkpt lat="43.76734" lon="3.34991">
        <ele>269</ele>
        <time>2018-04-07T11:58:31Z</time>
      </trkpt>
      <trkpt lat="43.76714" lon="3.3497">
        <ele>268</ele>
        <time>2018-04-07T11:58:43Z</time>
      </trkpt>
      <trkpt lat="43.76691" lon="3.34955">
        <ele>268</ele>
        <time>2018-04-07T11:58:46Z</time>
      </trkpt>
      <trkpt lat="43.76666" lon="3.34955">
        <ele>267</ele>
        <time>2018-04-07T11:58:50Z</time>
      </trkpt>
      <trkpt lat="43.76654" lon="3.34924">
        <ele>267</ele>
        <time>2018-04-07T11:58:58Z</time>
      </trkpt>
      <trkpt lat="43.76667" lon="3.34893">
        <ele>267</ele>
        <time>2018-04-07T11:59:04Z</time>
      </trkpt>
      <trkpt lat="43.76684" lon="3.34869">
        <ele>267</ele>
        <time>2018-04-07T11:59:11Z</time>
      </trkpt>
      <trkpt lat="43.76696" lon="3.34836">
        <ele>265</ele>
        <time>2018-04-07T11:59:16Z</time>
      </trkpt>
      <trkpt lat="43.76697" lon="3.34801">
        <ele>264</ele>
        <time>2018-04-07T11:59:26Z</time>
      </trkpt>
      <trkpt lat="43.76707" lon="3.34772">
        <ele>264</ele>
        <time>2018-04-07T11:59:32Z</time>
      </trkpt>
      <trkpt lat="43.76717" lon="3.3474">
        <ele>262</ele>
        <time>2018-04-07T11:59:39Z</time>
      </trkpt>
      <trkpt lat="43.76698" lon="3.34677">
        <ele>260</ele>
        <time>2018-04-07T11:59:55Z</time>
      </trkpt>
      <trkpt lat="43.76702" lon="3.34644">
        <ele>259</ele>
        <time>2018-04-07T12:00:37Z</time>
      </trkpt>
      <trkpt lat="43.76684" lon="3.34624">
        <ele>258</ele>
        <time>2018-04-07T12:00:44Z</time>
      </trkpt>
      <trkpt lat="43.7666" lon="3.34619">
        <ele>258</ele>
        <time>2018-04-07T12:00:56Z</time>
      </trkpt>
      <trkpt lat="43.76674" lon="3.34586">
        <ele>258</ele>
        <time>2018-04-07T12:01:49Z</time>
      </trkpt>
      <trkpt lat="43.76695" lon="3.34577">
        <ele>257</ele>
        <time>2018-04-07T12:02:14Z</time>
      </trkpt>
      <trkpt lat="43.76719" lon="3.34573">
        <ele>254</ele>
        <time>2018-04-07T12:02:22Z</time>
      </trkpt>
      <trkpt lat="43.76726" lon="3.34543">
        <ele>250</ele>
        <time>2018-04-07T12:02:31Z</time>
      </trkpt>
      <trkpt lat="43.7675" lon="3.34481">
        <ele>246</ele>
        <time>2018-04-07T12:02:47Z</time>
      </trkpt>
      <trkpt lat="43.7677" lon="3.34462">
        <ele>244</ele>
        <time>2018-04-07T12:02:55Z</time>
      </trkpt>
      <trkpt lat="43.76792" lon="3.34448">
        <ele>239</ele>
        <time>2018-04-07T12:03:02Z</time>
      </trkpt>
      <trkpt lat="43.76803" lon="3.3438">
        <ele>236</ele>
        <time>2018-04-07T12:03:18Z</time>
      </trkpt>
      <trkpt lat="43.76802" lon="3.34346">
        <ele>234</ele>
        <time>2018-04-07T12:03:21Z</time>
      </trkpt>
      <trkpt lat="43.76792" lon="3.34315">
        <ele>233</ele>
        <time>2018-04-07T12:03:27Z</time>
      </trkpt>
      <trkpt lat="43.76768" lon="3.34301">
        <ele>233</ele>
        <time>2018-04-07T12:03:57Z</time>
      </trkpt>
      <trkpt lat="43.76767" lon="3.34266">
        <ele>232</ele>
        <time>2018-04-07T12:04:35Z</time>
      </trkpt>
      <trkpt lat="43.76752" lon="3.34236">
        <ele>231</ele>
        <time>2018-04-07T12:04:41Z</time>
      </trkpt>
      <trkpt lat="43.76746" lon="3.34197">
        <ele>231</ele>
        <time>2018-04-07T12:04:47Z</time>
      </trkpt>
      <trkpt lat="43.76751" lon="3.34161">
        <ele>231</ele>
        <time>2018-04-07T12:04:53Z</time>
      </trkpt>
      <trkpt lat="43.76782" lon="3.34109">
        <ele>230</ele>
        <time>2018-04-07T12:05:05Z</time>
      </trkpt>
      <trkpt lat="43.76811" lon="3.34059">
        <ele>233</ele>
        <time>2018-04-07T12:05:18Z</time>
      </trkpt>
      <trkpt lat="43.76831" lon="3.33999">
        <ele>234</ele>
        <time>2018-04-07T12:05:29Z</time>
      </trkpt>
      <trkpt lat="43.76844" lon="3.33971">
        <ele>235</ele>
        <time>2018-04-07T12:05:33Z</time>
      </trkpt>
      <trkpt lat="43.76857" lon="3.33905">
        <ele>237</ele>
        <time>2018-04-07T12:05:45Z</time>
      </trkpt>
      <trkpt lat="43.76855" lon="3.33834">
        <ele>239</ele>
        <time>2018-04-07T12:05:56Z</time>
      </trkpt>
      <trkpt lat="43.7684" lon="3.33808">
        <ele>240</ele>
        <time>2018-04-07T12:06:01Z</time>
      </trkpt>
      <trkpt lat="43.76825" lon="3.33739">
        <ele>241</ele>
        <time>2018-04-07T12:06:14Z</time>
      </trkpt>
      <trkpt lat="43.76832" lon="3.33706">
        <ele>242</ele>
        <time>2018-04-07T12:06:18Z</time>
      </trkpt>
      <trkpt lat="43.76819" lon="3.3368">
        <ele>240</ele>
        <time>2018-04-07T12:06:21Z</time>
      </trkpt>
      <trkpt lat="43.76798" lon="3.33654">
        <ele>238</ele>
        <time>2018-04-07T12:06:25Z</time>
      </trkpt>
      <trkpt lat="43.76723" lon="3.33644">
        <ele>232</ele>
        <time>2018-04-07T12:06:36Z</time>
      </trkpt>
      <trkpt lat="43.76741" lon="3.33621">
        <ele>233</ele>
        <time>2018-04-07T12:06:58Z</time>
      </trkpt>
      <trkpt lat="43.76763" lon="3.33607">
        <ele>235</ele>
        <time>2018-04-07T12:07:06Z</time>
      </trkpt>
      <trkpt lat="43.76741" lon="3.33593">
        <ele>232</ele>
        <time>2018-04-07T12:07:22Z</time>
      </trkpt>
      <trkpt lat="43.76716" lon="3.33604">
        <ele>229</ele>
        <time>2018-04-07T12:07:29Z</time>
      </trkpt>
      <trkpt lat="43.76704" lon="3.33632">
        <ele>226</ele>
        <time>2018-04-07T12:07:38Z</time>
      </trkpt>
      <trkpt lat="43.76695" lon="3.33596">
        <ele>224</ele>
        <time>2018-04-07T12:08:00Z</time>
      </trkpt>
      <trkpt lat="43.76586" lon="3.33466">
        <ele>219</ele>
        <time>2018-04-07T12:08:31Z</time>
      </trkpt>
      <trkpt lat="43.76484" lon="3.33348">
        <ele>217</ele>
        <time>2018-04-07T12:09:00Z</time>
      </trkpt>
      <trkpt lat="43.76453" lon="3.33301">
        <ele>217</ele>
        <time>2018-04-07T12:09:12Z</time>
      </trkpt>
      <trkpt lat="43.76465" lon="3.33274">
        <ele>218</ele>
        <time>2018-04-07T12:09:22Z</time>
      </trkpt>
      <trkpt lat="43.76488" lon="3.33269">
        <ele>220</ele>
        <time>2018-04-07T12:09:30Z</time>
      </trkpt>
      <trkpt lat="43.76511" lon="3.33266">
        <ele>220</ele>
        <time>2018-04-07T12:09:37Z</time>
      </trkpt>
      <trkpt lat="43.76527" lon="3.33243">
        <ele>220</ele>
        <time>2018-04-07T12:09:43Z</time>
      </trkpt>
      <trkpt lat="43.7653" lon="3.33208">
        <ele>219</ele>
        <time>2018-04-07T12:09:46Z</time>
      </trkpt>
      <trkpt lat="43.76513" lon="3.33113">
        <ele>214</ele>
        <time>2018-04-07T12:09:56Z</time>
      </trkpt>
      <trkpt lat="43.76517" lon="3.33144">
        <ele>197</ele>
        <time>2018-04-07T12:11:35Z</time>
      </trkpt>
      <trkpt lat="43.76522" lon="3.33175">
        <ele>200</ele>
        <time>2018-04-07T12:11:46Z</time>
      </trkpt>
      <trkpt lat="43.76525" lon="3.33206">
        <ele>202</ele>
        <time>2018-04-07T12:12:00Z</time>
      </trkpt>
      <trkpt lat="43.76524" lon="3.33239">
        <ele>203</ele>
        <time>2018-04-07T12:12:17Z</time>
      </trkpt>
      <trkpt lat="43.76458" lon="3.33276">
        <ele>205</ele>
        <time>2018-04-07T12:12:52Z</time>
      </trkpt>
      <trkpt lat="43.76437" lon="3.3329">
        <ele>205</ele>
        <time>2018-04-07T12:13:01Z</time>
      </trkpt>
      <trkpt lat="43.76375" lon="3.33246">
        <ele>211</ele>
        <time>2018-04-07T12:13:31Z</time>
      </trkpt>
      <trkpt lat="43.76263" lon="3.33157">
        <ele>211</ele>
        <time>2018-04-07T12:13:51Z</time>
      </trkpt>
      <trkpt lat="43.76239" lon="3.33142">
        <ele>211</ele>
        <time>2018-04-07T12:13:54Z</time>
      </trkpt>
      <trkpt lat="43.76201" lon="3.33185">
        <ele>211</ele>
        <time>2018-04-07T12:14:02Z</time>
      </trkpt>
      <trkpt lat="43.76101" lon="3.33085">
        <ele>209</ele>
        <time>2018-04-07T12:14:32Z</time>
      </trkpt>
      <trkpt lat="43.76037" lon="3.3303">
        <ele>208</ele>
        <time>2018-04-07T12:14:46Z</time>
      </trkpt>
      <trkpt lat="43.75967" lon="3.32993">
        <ele>206</ele>
        <time>2018-04-07T12:14:59Z</time>
      </trkpt>
      <trkpt lat="43.75868" lon="3.32974">
        <ele>208</ele>
        <time>2018-04-07T12:15:15Z</time>
      </trkpt>
      <trkpt lat="43.75665" lon="3.3299">
        <ele>203</ele>
        <time>2018-04-07T12:15:46Z</time>
      </trkpt>
      <trkpt lat="43.75638" lon="3.32991">
        <ele>202</ele>
        <time>2018-04-07T12:15:49Z</time>
      </trkpt>
      <trkpt lat="43.75587" lon="3.33008">
        <ele>200</ele>
        <time>2018-04-07T12:15:55Z</time>
      </trkpt>
      <trkpt lat="43.75564" lon="3.32982">
        <ele>199</ele>
        <time>2018-04-07T12:16:00Z</time>
      </trkpt>
      <trkpt lat="43.7559" lon="3.3291">
        <ele>196</ele>
        <time>2018-04-07T12:16:09Z</time>
      </trkpt>
      <trkpt lat="43.7564" lon="3.32891">
        <ele>193</ele>
        <time>2018-04-07T12:16:17Z</time>
      </trkpt>
      <trkpt lat="43.75688" lon="3.32895">
        <ele>192</ele>
        <time>2018-04-07T12:16:25Z</time>
      </trkpt>
      <trkpt lat="43.75712" lon="3.32909">
        <ele>191</ele>
        <time>2018-04-07T12:16:31Z</time>
      </trkpt>
      <trkpt lat="43.75782" lon="3.32879">
        <ele>192</ele>
        <time>2018-04-07T12:16:48Z</time>
      </trkpt>
      <trkpt lat="43.75805" lon="3.32868">
        <ele>193</ele>
        <time>2018-04-07T12:16:55Z</time>
      </trkpt>
      <trkpt lat="43.75829" lon="3.32862">
        <ele>193</ele>
        <time>2018-04-07T12:17:02Z</time>
      </trkpt>
      <trkpt lat="43.75873" lon="3.32839">
        <ele>197</ele>
        <time>2018-04-07T12:17:19Z</time>
      </trkpt>
      <trkpt lat="43.75895" lon="3.32833">
        <ele>200</ele>
        <time>2018-04-07T12:17:26Z</time>
      </trkpt>
      <trkpt lat="43.75906" lon="3.32861">
        <ele>203</ele>
        <time>2018-04-07T12:17:35Z</time>
      </trkpt>
      <trkpt lat="43.75926" lon="3.32883">
        <ele>205</ele>
        <time>2018-04-07T12:17:42Z</time>
      </trkpt>
      <trkpt lat="43.75945" lon="3.32865">
        <ele>206</ele>
        <time>2018-04-07T12:17:48Z</time>
      </trkpt>
      <trkpt lat="43.75967" lon="3.32845">
        <ele>207</ele>
        <time>2018-04-07T12:17:52Z</time>
      </trkpt>
      <trkpt lat="43.75991" lon="3.32845">
        <ele>207</ele>
        <time>2018-04-07T12:17:55Z</time>
      </trkpt>
      <trkpt lat="43.76013" lon="3.32838">
        <ele>206</ele>
        <time>2018-04-07T12:17:58Z</time>
      </trkpt>
      <trkpt lat="43.76102" lon="3.32769">
        <ele>204</ele>
        <time>2018-04-07T12:18:12Z</time>
      </trkpt>
      <trkpt lat="43.76144" lon="3.32724">
        <ele>203</ele>
        <time>2018-04-07T12:18:20Z</time>
      </trkpt>
      <trkpt lat="43.76171" lon="3.32711">
        <ele>202</ele>
        <time>2018-04-07T12:18:25Z</time>
      </trkpt>
      <trkpt lat="43.76188" lon="3.32733">
        <ele>202</ele>
        <time>2018-04-07T12:18:29Z</time>
      </trkpt>
      <trkpt lat="43.76201" lon="3.32796">
        <ele>202</ele>
        <time>2018-04-07T12:18:42Z</time>
      </trkpt>
      <trkpt lat="43.7623" lon="3.32846">
        <ele>204</ele>
        <time>2018-04-07T12:18:51Z</time>
      </trkpt>
      <trkpt lat="43.76273" lon="3.32887">
        <ele>206</ele>
        <time>2018-04-07T12:19:02Z</time>
      </trkpt>
      <trkpt lat="43.76314" lon="3.32925">
        <ele>208</ele>
        <time>2018-04-07T12:19:12Z</time>
      </trkpt>
    </trkseg>
  </trk>
</gpx>